<?xml version="1.0" encoding="UTF-8" standalone="no" ?>
<gpx xmlns="http://www.topografix.com/GPX/1/1" xmlns:xsi="http://www.w3.org/2001/XMLSchema-instance" xsi:schemaLocation="http://www.topografix.com/GPX/1/1 http://www.topografix.com/GPX/1/1/gpx.xsd" version="1.1" creator="VisuGPX - https://www.visugpx.com">
  <metadata>
    <name>Murinais</name>
    <desc><![CDATA[2009-04-22_Murinais,Dist.85Km Asc.945m 3h42.gpx]]></desc>
  </metadata>
  <trk>
    <name><![CDATA[Murinais]]></name>
    <trkseg>
      <trkpt lat="45.12017" lon="4.98694">
        <ele>203.15321350098</ele>
        <time>2009-04-22T11:40:53Z</time>
      </trkpt>
      <trkpt lat="45.12031" lon="4.98688">
        <ele>203.58805847168</ele>
        <time>2009-04-22T11:40:55Z</time>
      </trkpt>
      <trkpt lat="45.12048" lon="4.98766">
        <ele>203.69752502441</ele>
        <time>2009-04-22T11:41:03Z</time>
      </trkpt>
      <trkpt lat="45.12075" lon="4.98835">
        <ele>203.88456726074</ele>
        <time>2009-04-22T11:41:10Z</time>
      </trkpt>
      <trkpt lat="45.12103" lon="4.98886">
        <ele>204.13391113281</ele>
        <time>2009-04-22T11:41:16Z</time>
      </trkpt>
      <trkpt lat="45.12161" lon="4.98968">
        <ele>206.76472473144</ele>
        <time>2009-04-22T11:41:27Z</time>
      </trkpt>
      <trkpt lat="45.12215" lon="4.99027">
        <ele>213.65786743164</ele>
        <time>2009-04-22T11:41:36Z</time>
      </trkpt>
      <trkpt lat="45.12214" lon="4.99046">
        <ele>212.87773132324</ele>
        <time>2009-04-22T11:41:38Z</time>
      </trkpt>
      <trkpt lat="45.12221" lon="4.99061">
        <ele>213.33065795898</ele>
        <time>2009-04-22T11:41:40Z</time>
      </trkpt>
      <trkpt lat="45.12227" lon="4.99065">
        <ele>213.92024230957</ele>
        <time>2009-04-22T11:41:41Z</time>
      </trkpt>
      <trkpt lat="45.12196" lon="4.99199">
        <ele>209.83680725098</ele>
        <time>2009-04-22T11:41:54Z</time>
      </trkpt>
      <trkpt lat="45.12139" lon="4.99395">
        <ele>208.74853515625</ele>
        <time>2009-04-22T11:42:14Z</time>
      </trkpt>
      <trkpt lat="45.12105" lon="4.99475">
        <ele>207.41941833496</ele>
        <time>2009-04-22T11:42:23Z</time>
      </trkpt>
      <trkpt lat="45.12075" lon="4.99532">
        <ele>206.97688293457</ele>
        <time>2009-04-22T11:42:29Z</time>
      </trkpt>
      <trkpt lat="45.11953" lon="4.99738">
        <ele>208.23867797852</ele>
        <time>2009-04-22T11:42:55Z</time>
      </trkpt>
      <trkpt lat="45.11963" lon="4.99741">
        <ele>208.25254821777</ele>
        <time>2009-04-22T11:42:56Z</time>
      </trkpt>
      <trkpt lat="45.1197" lon="4.99768">
        <ele>208.80700683594</ele>
        <time>2009-04-22T11:42:59Z</time>
      </trkpt>
      <trkpt lat="45.11955" lon="4.99993">
        <ele>224.56364440918</ele>
        <time>2009-04-22T11:43:20Z</time>
      </trkpt>
      <trkpt lat="45.11944" lon="5.00049">
        <ele>217.76998901367</ele>
        <time>2009-04-22T11:43:26Z</time>
      </trkpt>
      <trkpt lat="45.11909" lon="5.0013">
        <ele>219.03903198242</ele>
        <time>2009-04-22T11:43:35Z</time>
      </trkpt>
      <trkpt lat="45.11908" lon="5.0017">
        <ele>219.03753662109</ele>
        <time>2009-04-22T11:43:38Z</time>
      </trkpt>
      <trkpt lat="45.11926" lon="5.00212">
        <ele>218.87785339356</ele>
        <time>2009-04-22T11:43:43Z</time>
      </trkpt>
      <trkpt lat="45.11979" lon="5.00311">
        <ele>219.76968383789</ele>
        <time>2009-04-22T11:43:55Z</time>
      </trkpt>
      <trkpt lat="45.11992" lon="5.00348">
        <ele>222.20465087891</ele>
        <time>2009-04-22T11:43:59Z</time>
      </trkpt>
      <trkpt lat="45.12047" lon="5.00554">
        <ele>235.7412109375</ele>
        <time>2009-04-22T11:44:19Z</time>
      </trkpt>
      <trkpt lat="45.1202" lon="5.0071">
        <ele>235.32666015625</ele>
        <time>2009-04-22T11:44:34Z</time>
      </trkpt>
      <trkpt lat="45.12019" lon="5.00729">
        <ele>235.44287109375</ele>
        <time>2009-04-22T11:44:36Z</time>
      </trkpt>
      <trkpt lat="45.12026" lon="5.00791">
        <ele>236.89324951172</ele>
        <time>2009-04-22T11:44:42Z</time>
      </trkpt>
      <trkpt lat="45.12022" lon="5.00836">
        <ele>237.79266357422</ele>
        <time>2009-04-22T11:44:46Z</time>
      </trkpt>
      <trkpt lat="45.12005" lon="5.00918">
        <ele>239</ele>
        <time>2009-04-22T11:44:54Z</time>
      </trkpt>
      <trkpt lat="45.11977" lon="5.01009">
        <ele>242.59138488769</ele>
        <time>2009-04-22T11:45:04Z</time>
      </trkpt>
      <trkpt lat="45.1198" lon="5.00997">
        <ele>241.89266967773</ele>
        <time>2009-04-22T11:45:05Z</time>
      </trkpt>
      <trkpt lat="45.12031" lon="5.01076">
        <ele>244.25862121582</ele>
        <time>2009-04-22T11:45:15Z</time>
      </trkpt>
      <trkpt lat="45.12083" lon="5.01185">
        <ele>246.6696472168</ele>
        <time>2009-04-22T11:45:27Z</time>
      </trkpt>
      <trkpt lat="45.12168" lon="5.01286">
        <ele>240.34771728516</ele>
        <time>2009-04-22T11:45:42Z</time>
      </trkpt>
      <trkpt lat="45.12281" lon="5.01405">
        <ele>254.95072937012</ele>
        <time>2009-04-22T11:46:01Z</time>
      </trkpt>
      <trkpt lat="45.12331" lon="5.01468">
        <ele>255.86041259766</ele>
        <time>2009-04-22T11:46:10Z</time>
      </trkpt>
      <trkpt lat="45.12533" lon="5.01798">
        <ele>258.80523681641</ele>
        <time>2009-04-22T11:46:51Z</time>
      </trkpt>
      <trkpt lat="45.12565" lon="5.01842">
        <ele>258.20434570312</ele>
        <time>2009-04-22T11:46:57Z</time>
      </trkpt>
      <trkpt lat="45.12622" lon="5.01894">
        <ele>256.11135864258</ele>
        <time>2009-04-22T11:47:06Z</time>
      </trkpt>
      <trkpt lat="45.12749" lon="5.01973">
        <ele>253.09814453125</ele>
        <time>2009-04-22T11:47:25Z</time>
      </trkpt>
      <trkpt lat="45.12862" lon="5.02061">
        <ele>241.15658569336</ele>
        <time>2009-04-22T11:47:42Z</time>
      </trkpt>
      <trkpt lat="45.12901" lon="5.02074">
        <ele>240</ele>
        <time>2009-04-22T11:47:47Z</time>
      </trkpt>
      <trkpt lat="45.12962" lon="5.02199">
        <ele>238.36944580078</ele>
        <time>2009-04-22T11:48:01Z</time>
      </trkpt>
      <trkpt lat="45.13031" lon="5.02293">
        <ele>239.43231201172</ele>
        <time>2009-04-22T11:48:14Z</time>
      </trkpt>
      <trkpt lat="45.13069" lon="5.02373">
        <ele>241.66641235352</ele>
        <time>2009-04-22T11:48:23Z</time>
      </trkpt>
      <trkpt lat="45.13075" lon="5.02405">
        <ele>243.07521057129</ele>
        <time>2009-04-22T11:48:26Z</time>
      </trkpt>
      <trkpt lat="45.13083" lon="5.02528">
        <ele>244.04034423828</ele>
        <time>2009-04-22T11:48:38Z</time>
      </trkpt>
      <trkpt lat="45.13099" lon="5.02605">
        <ele>240.31799316406</ele>
        <time>2009-04-22T11:48:46Z</time>
      </trkpt>
      <trkpt lat="45.13121" lon="5.02661">
        <ele>240.92700195312</ele>
        <time>2009-04-22T11:48:52Z</time>
      </trkpt>
      <trkpt lat="45.1321" lon="5.02816">
        <ele>252.98046875</ele>
        <time>2009-04-22T11:49:10Z</time>
      </trkpt>
      <trkpt lat="45.13221" lon="5.02848">
        <ele>256.853515625</ele>
        <time>2009-04-22T11:49:14Z</time>
      </trkpt>
      <trkpt lat="45.13224" lon="5.02876">
        <ele>259.13208007812</ele>
        <time>2009-04-22T11:49:16Z</time>
      </trkpt>
      <trkpt lat="45.13221" lon="5.02928">
        <ele>260.2477722168</ele>
        <time>2009-04-22T11:49:21Z</time>
      </trkpt>
      <trkpt lat="45.13217" lon="5.02954">
        <ele>260.86053466797</ele>
        <time>2009-04-22T11:49:24Z</time>
      </trkpt>
      <trkpt lat="45.1319" lon="5.03033">
        <ele>261.03149414062</ele>
        <time>2009-04-22T11:49:32Z</time>
      </trkpt>
      <trkpt lat="45.13183" lon="5.0308">
        <ele>262.46142578125</ele>
        <time>2009-04-22T11:49:37Z</time>
      </trkpt>
      <trkpt lat="45.13181" lon="5.03132">
        <ele>264.63180541992</ele>
        <time>2009-04-22T11:49:42Z</time>
      </trkpt>
      <trkpt lat="45.13195" lon="5.03219">
        <ele>268.72915649414</ele>
        <time>2009-04-22T11:49:50Z</time>
      </trkpt>
      <trkpt lat="45.13232" lon="5.03381">
        <ele>271.00958251953</ele>
        <time>2009-04-22T11:50:06Z</time>
      </trkpt>
      <trkpt lat="45.13247" lon="5.03472">
        <ele>273.21371459961</ele>
        <time>2009-04-22T11:50:15Z</time>
      </trkpt>
      <trkpt lat="45.13243" lon="5.03635">
        <ele>278.35577392578</ele>
        <time>2009-04-22T11:50:30Z</time>
      </trkpt>
      <trkpt lat="45.13216" lon="5.03771">
        <ele>278.22332763672</ele>
        <time>2009-04-22T11:50:43Z</time>
      </trkpt>
      <trkpt lat="45.13197" lon="5.0382">
        <ele>277.90997314453</ele>
        <time>2009-04-22T11:50:49Z</time>
      </trkpt>
      <trkpt lat="45.13145" lon="5.03879">
        <ele>278</ele>
        <time>2009-04-22T11:50:58Z</time>
      </trkpt>
      <trkpt lat="45.13125" lon="5.03912">
        <ele>278.83270263672</ele>
        <time>2009-04-22T11:51:02Z</time>
      </trkpt>
      <trkpt lat="45.13116" lon="5.03999">
        <ele>279.96380615234</ele>
        <time>2009-04-22T11:51:10Z</time>
      </trkpt>
      <trkpt lat="45.13117" lon="5.04055">
        <ele>282.96560668945</ele>
        <time>2009-04-22T11:51:15Z</time>
      </trkpt>
      <trkpt lat="45.13123" lon="5.04089">
        <ele>285.20477294922</ele>
        <time>2009-04-22T11:51:18Z</time>
      </trkpt>
      <trkpt lat="45.13139" lon="5.04163">
        <ele>289.86462402344</ele>
        <time>2009-04-22T11:51:26Z</time>
      </trkpt>
      <trkpt lat="45.13144" lon="5.0421">
        <ele>292.93850708008</ele>
        <time>2009-04-22T11:51:30Z</time>
      </trkpt>
      <trkpt lat="45.13145" lon="5.04261">
        <ele>295.38104248047</ele>
        <time>2009-04-22T11:51:35Z</time>
      </trkpt>
      <trkpt lat="45.13138" lon="5.04308">
        <ele>293.95111083984</ele>
        <time>2009-04-22T11:51:40Z</time>
      </trkpt>
      <trkpt lat="45.13098" lon="5.04435">
        <ele>289.96472167969</ele>
        <time>2009-04-22T11:51:53Z</time>
      </trkpt>
      <trkpt lat="45.13052" lon="5.04541">
        <ele>293.80078125</ele>
        <time>2009-04-22T11:52:04Z</time>
      </trkpt>
      <trkpt lat="45.12976" lon="5.04738">
        <ele>298.861328125</ele>
        <time>2009-04-22T11:52:26Z</time>
      </trkpt>
      <trkpt lat="45.12925" lon="5.05013">
        <ele>316.01049804688</ele>
        <time>2009-04-22T11:52:52Z</time>
      </trkpt>
      <trkpt lat="45.1292" lon="5.05061">
        <ele>313.41473388672</ele>
        <time>2009-04-22T11:52:57Z</time>
      </trkpt>
      <trkpt lat="45.12918" lon="5.0514">
        <ele>308.025390625</ele>
        <time>2009-04-22T11:53:04Z</time>
      </trkpt>
      <trkpt lat="45.12921" lon="5.05186">
        <ele>303.86260986328</ele>
        <time>2009-04-22T11:53:09Z</time>
      </trkpt>
      <trkpt lat="45.12931" lon="5.05244">
        <ele>300</ele>
        <time>2009-04-22T11:53:14Z</time>
      </trkpt>
      <trkpt lat="45.12965" lon="5.05391">
        <ele>300</ele>
        <time>2009-04-22T11:53:29Z</time>
      </trkpt>
      <trkpt lat="45.1302" lon="5.05424">
        <ele>304.21133422852</ele>
        <time>2009-04-22T11:53:37Z</time>
      </trkpt>
      <trkpt lat="45.13066" lon="5.05471">
        <ele>311.5185546875</ele>
        <time>2009-04-22T11:53:44Z</time>
      </trkpt>
      <trkpt lat="45.13093" lon="5.05515">
        <ele>314.35467529297</ele>
        <time>2009-04-22T11:53:50Z</time>
      </trkpt>
      <trkpt lat="45.13112" lon="5.05556">
        <ele>314.07113647461</ele>
        <time>2009-04-22T11:53:54Z</time>
      </trkpt>
      <trkpt lat="45.13195" lon="5.0566">
        <ele>319.02136230469</ele>
        <time>2009-04-22T11:54:09Z</time>
      </trkpt>
      <trkpt lat="45.13212" lon="5.05695">
        <ele>319.62561035156</ele>
        <time>2009-04-22T11:54:13Z</time>
      </trkpt>
      <trkpt lat="45.13241" lon="5.05783">
        <ele>320</ele>
        <time>2009-04-22T11:54:22Z</time>
      </trkpt>
      <trkpt lat="45.13265" lon="5.05844">
        <ele>320</ele>
        <time>2009-04-22T11:54:29Z</time>
      </trkpt>
      <trkpt lat="45.13274" lon="5.05879">
        <ele>320.08764648438</ele>
        <time>2009-04-22T11:54:32Z</time>
      </trkpt>
      <trkpt lat="45.13285" lon="5.0605">
        <ele>325.11517333984</ele>
        <time>2009-04-22T11:54:49Z</time>
      </trkpt>
      <trkpt lat="45.13285" lon="5.06097">
        <ele>326.01605224609</ele>
        <time>2009-04-22T11:54:53Z</time>
      </trkpt>
      <trkpt lat="45.13226" lon="5.0631">
        <ele>328.56512451172</ele>
        <time>2009-04-22T11:55:15Z</time>
      </trkpt>
      <trkpt lat="45.13203" lon="5.06352">
        <ele>328.61950683594</ele>
        <time>2009-04-22T11:55:20Z</time>
      </trkpt>
      <trkpt lat="45.13147" lon="5.06434">
        <ele>323.43035888672</ele>
        <time>2009-04-22T11:55:30Z</time>
      </trkpt>
      <trkpt lat="45.13187" lon="5.06512">
        <ele>325.60034179688</ele>
        <time>2009-04-22T11:55:39Z</time>
      </trkpt>
      <trkpt lat="45.13218" lon="5.06554">
        <ele>326.59259033203</ele>
        <time>2009-04-22T11:55:45Z</time>
      </trkpt>
      <trkpt lat="45.13351" lon="5.0672">
        <ele>328.04434204102</ele>
        <time>2009-04-22T11:56:09Z</time>
      </trkpt>
      <trkpt lat="45.13444" lon="5.06826">
        <ele>324.77886962891</ele>
        <time>2009-04-22T11:56:25Z</time>
      </trkpt>
      <trkpt lat="45.1354" lon="5.06911">
        <ele>320.84451293945</ele>
        <time>2009-04-22T11:56:40Z</time>
      </trkpt>
      <trkpt lat="45.13768" lon="5.07076">
        <ele>329.56121826172</ele>
        <time>2009-04-22T11:57:14Z</time>
      </trkpt>
      <trkpt lat="45.13999" lon="5.07302">
        <ele>341.88513183594</ele>
        <time>2009-04-22T11:57:51Z</time>
      </trkpt>
      <trkpt lat="45.14167" lon="5.07483">
        <ele>353.24139404297</ele>
        <time>2009-04-22T11:58:20Z</time>
      </trkpt>
      <trkpt lat="45.14503" lon="5.07879">
        <ele>362.40051269531</ele>
        <time>2009-04-22T11:59:18Z</time>
      </trkpt>
      <trkpt lat="45.14579" lon="5.07982">
        <ele>361.64001464844</ele>
        <time>2009-04-22T11:59:32Z</time>
      </trkpt>
      <trkpt lat="45.14603" lon="5.08021">
        <ele>361.22732543945</ele>
        <time>2009-04-22T11:59:37Z</time>
      </trkpt>
      <trkpt lat="45.14829" lon="5.08302">
        <ele>360.23403930664</ele>
        <time>2009-04-22T12:00:17Z</time>
      </trkpt>
      <trkpt lat="45.14874" lon="5.08344">
        <ele>360</ele>
        <time>2009-04-22T12:00:24Z</time>
      </trkpt>
      <trkpt lat="45.14989" lon="5.08413">
        <ele>360.1611328125</ele>
        <time>2009-04-22T12:00:41Z</time>
      </trkpt>
      <trkpt lat="45.15366" lon="5.08617">
        <ele>386.23864746094</ele>
        <time>2009-04-22T12:01:35Z</time>
      </trkpt>
      <trkpt lat="45.15388" lon="5.08643">
        <ele>387.55862426758</ele>
        <time>2009-04-22T12:01:38Z</time>
      </trkpt>
      <trkpt lat="45.1558" lon="5.08917">
        <ele>402.61468505859</ele>
        <time>2009-04-22T12:02:15Z</time>
      </trkpt>
      <trkpt lat="45.15823" lon="5.09233">
        <ele>406.95782470703</ele>
        <time>2009-04-22T12:02:59Z</time>
      </trkpt>
      <trkpt lat="45.16072" lon="5.09572">
        <ele>413.69152832031</ele>
        <time>2009-04-22T12:03:45Z</time>
      </trkpt>
      <trkpt lat="45.16098" lon="5.09593">
        <ele>411.01254272461</ele>
        <time>2009-04-22T12:03:49Z</time>
      </trkpt>
      <trkpt lat="45.16113" lon="5.09599">
        <ele>411.40679931641</ele>
        <time>2009-04-22T12:03:51Z</time>
      </trkpt>
      <trkpt lat="45.16134" lon="5.09605">
        <ele>412.12075805664</ele>
        <time>2009-04-22T12:03:54Z</time>
      </trkpt>
      <trkpt lat="45.16171" lon="5.09604">
        <ele>413.77825927734</ele>
        <time>2009-04-22T12:03:59Z</time>
      </trkpt>
      <trkpt lat="45.16219" lon="5.09575">
        <ele>417.21807861328</ele>
        <time>2009-04-22T12:04:06Z</time>
      </trkpt>
      <trkpt lat="45.16268" lon="5.0953">
        <ele>423.73590087891</ele>
        <time>2009-04-22T12:04:13Z</time>
      </trkpt>
      <trkpt lat="45.16285" lon="5.09526">
        <ele>426.90075683594</ele>
        <time>2009-04-22T12:04:16Z</time>
      </trkpt>
      <trkpt lat="45.16302" lon="5.09534">
        <ele>428.15368652344</ele>
        <time>2009-04-22T12:04:18Z</time>
      </trkpt>
      <trkpt lat="45.16355" lon="5.09589">
        <ele>429.15020751953</ele>
        <time>2009-04-22T12:04:27Z</time>
      </trkpt>
      <trkpt lat="45.16455" lon="5.09626">
        <ele>436.40689086914</ele>
        <time>2009-04-22T12:04:41Z</time>
      </trkpt>
      <trkpt lat="45.16459" lon="5.09636">
        <ele>436.19723510742</ele>
        <time>2009-04-22T12:04:42Z</time>
      </trkpt>
      <trkpt lat="45.16454" lon="5.09652">
        <ele>434.73962402344</ele>
        <time>2009-04-22T12:04:43Z</time>
      </trkpt>
      <trkpt lat="45.16436" lon="5.09665">
        <ele>432.20761108398</ele>
        <time>2009-04-22T12:04:46Z</time>
      </trkpt>
      <trkpt lat="45.16412" lon="5.09674">
        <ele>430.18832397461</ele>
        <time>2009-04-22T12:04:49Z</time>
      </trkpt>
      <trkpt lat="45.16388" lon="5.09696">
        <ele>430.04220581055</ele>
        <time>2009-04-22T12:04:53Z</time>
      </trkpt>
      <trkpt lat="45.16384" lon="5.09717">
        <ele>431.1408996582</ele>
        <time>2009-04-22T12:04:55Z</time>
      </trkpt>
      <trkpt lat="45.16386" lon="5.09739">
        <ele>432.96292114258</ele>
        <time>2009-04-22T12:04:57Z</time>
      </trkpt>
      <trkpt lat="45.16396" lon="5.09761">
        <ele>435.55462646484</ele>
        <time>2009-04-22T12:05:00Z</time>
      </trkpt>
      <trkpt lat="45.16417" lon="5.09777">
        <ele>438.95532226562</ele>
        <time>2009-04-22T12:05:03Z</time>
      </trkpt>
      <trkpt lat="45.16473" lon="5.09801">
        <ele>443.56057739258</ele>
        <time>2009-04-22T12:05:11Z</time>
      </trkpt>
      <trkpt lat="45.16501" lon="5.09822">
        <ele>448.45843505859</ele>
        <time>2009-04-22T12:05:15Z</time>
      </trkpt>
      <trkpt lat="45.1665" lon="5.09976">
        <ele>465.18246459961</ele>
        <time>2009-04-22T12:05:40Z</time>
      </trkpt>
      <trkpt lat="45.16666" lon="5.0999">
        <ele>465.32330322266</ele>
        <time>2009-04-22T12:05:42Z</time>
      </trkpt>
      <trkpt lat="45.16735" lon="5.10031">
        <ele>466.34732055664</ele>
        <time>2009-04-22T12:05:52Z</time>
      </trkpt>
      <trkpt lat="45.1679" lon="5.10099">
        <ele>465.43664550781</ele>
        <time>2009-04-22T12:06:02Z</time>
      </trkpt>
      <trkpt lat="45.16844" lon="5.10228">
        <ele>463.48251342773</ele>
        <time>2009-04-22T12:06:16Z</time>
      </trkpt>
      <trkpt lat="45.1695" lon="5.10413">
        <ele>460.80560302734</ele>
        <time>2009-04-22T12:06:38Z</time>
      </trkpt>
      <trkpt lat="45.17118" lon="5.10646">
        <ele>460</ele>
        <time>2009-04-22T12:07:10Z</time>
      </trkpt>
      <trkpt lat="45.17145" lon="5.10691">
        <ele>460.87683105469</ele>
        <time>2009-04-22T12:07:15Z</time>
      </trkpt>
      <trkpt lat="45.17177" lon="5.10753">
        <ele>461</ele>
        <time>2009-04-22T12:07:23Z</time>
      </trkpt>
      <trkpt lat="45.1723" lon="5.10936">
        <ele>465.19116210938</ele>
        <time>2009-04-22T12:07:41Z</time>
      </trkpt>
      <trkpt lat="45.17245" lon="5.10972">
        <ele>466.64141845703</ele>
        <time>2009-04-22T12:07:45Z</time>
      </trkpt>
      <trkpt lat="45.1727" lon="5.11004">
        <ele>468.81994628906</ele>
        <time>2009-04-22T12:07:50Z</time>
      </trkpt>
      <trkpt lat="45.17326" lon="5.11054">
        <ele>476.62243652344</ele>
        <time>2009-04-22T12:07:58Z</time>
      </trkpt>
      <trkpt lat="45.17438" lon="5.11277">
        <ele>480</ele>
        <time>2009-04-22T12:08:24Z</time>
      </trkpt>
      <trkpt lat="45.1753" lon="5.11592">
        <ele>480</ele>
        <time>2009-04-22T12:08:56Z</time>
      </trkpt>
      <trkpt lat="45.17602" lon="5.11733">
        <ele>480</ele>
        <time>2009-04-22T12:09:13Z</time>
      </trkpt>
      <trkpt lat="45.17697" lon="5.12103">
        <ele>480</ele>
        <time>2009-04-22T12:09:50Z</time>
      </trkpt>
      <trkpt lat="45.17724" lon="5.12156">
        <ele>481</ele>
        <time>2009-04-22T12:09:56Z</time>
      </trkpt>
      <trkpt lat="45.1779" lon="5.12248">
        <ele>482.95910644531</ele>
        <time>2009-04-22T12:10:08Z</time>
      </trkpt>
      <trkpt lat="45.17813" lon="5.12303">
        <ele>485.18063354492</ele>
        <time>2009-04-22T12:10:14Z</time>
      </trkpt>
      <trkpt lat="45.17835" lon="5.12395">
        <ele>488.22003173828</ele>
        <time>2009-04-22T12:10:23Z</time>
      </trkpt>
      <trkpt lat="45.17926" lon="5.12727">
        <ele>498.2873840332</ele>
        <time>2009-04-22T12:10:57Z</time>
      </trkpt>
      <trkpt lat="45.17975" lon="5.12854">
        <ele>500</ele>
        <time>2009-04-22T12:11:10Z</time>
      </trkpt>
      <trkpt lat="45.18007" lon="5.12951">
        <ele>501.23571777344</ele>
        <time>2009-04-22T12:11:21Z</time>
      </trkpt>
      <trkpt lat="45.18036" lon="5.13201">
        <ele>506.23593139648</ele>
        <time>2009-04-22T12:11:44Z</time>
      </trkpt>
      <trkpt lat="45.18073" lon="5.13321">
        <ele>509.34741210938</ele>
        <time>2009-04-22T12:11:57Z</time>
      </trkpt>
      <trkpt lat="45.18122" lon="5.13462">
        <ele>510</ele>
        <time>2009-04-22T12:12:11Z</time>
      </trkpt>
      <trkpt lat="45.18148" lon="5.13495">
        <ele>510</ele>
        <time>2009-04-22T12:12:16Z</time>
      </trkpt>
      <trkpt lat="45.18379" lon="5.13648">
        <ele>507.6032409668</ele>
        <time>2009-04-22T12:12:50Z</time>
      </trkpt>
      <trkpt lat="45.1841" lon="5.13695">
        <ele>510</ele>
        <time>2009-04-22T12:12:56Z</time>
      </trkpt>
      <trkpt lat="45.1846" lon="5.13833">
        <ele>510</ele>
        <time>2009-04-22T12:13:11Z</time>
      </trkpt>
      <trkpt lat="45.18595" lon="5.14191">
        <ele>503.45184326172</ele>
        <time>2009-04-22T12:13:49Z</time>
      </trkpt>
      <trkpt lat="45.18679" lon="5.14255">
        <ele>502.18884277344</ele>
        <time>2009-04-22T12:14:02Z</time>
      </trkpt>
      <trkpt lat="45.18723" lon="5.14279">
        <ele>499.94467163086</ele>
        <time>2009-04-22T12:14:08Z</time>
      </trkpt>
      <trkpt lat="45.18756" lon="5.14278">
        <ele>495.13586425781</ele>
        <time>2009-04-22T12:14:12Z</time>
      </trkpt>
      <trkpt lat="45.18777" lon="5.14267">
        <ele>491.32495117188</ele>
        <time>2009-04-22T12:14:15Z</time>
      </trkpt>
      <trkpt lat="45.18792" lon="5.14248">
        <ele>487.30215454102</ele>
        <time>2009-04-22T12:14:18Z</time>
      </trkpt>
      <trkpt lat="45.18799" lon="5.14219">
        <ele>483.9787902832</ele>
        <time>2009-04-22T12:14:21Z</time>
      </trkpt>
      <trkpt lat="45.18799" lon="5.14199">
        <ele>482.54028320312</ele>
        <time>2009-04-22T12:14:23Z</time>
      </trkpt>
      <trkpt lat="45.18791" lon="5.14124">
        <ele>479.30758666992</ele>
        <time>2009-04-22T12:14:30Z</time>
      </trkpt>
      <trkpt lat="45.18782" lon="5.14092">
        <ele>478.89990234375</ele>
        <time>2009-04-22T12:14:33Z</time>
      </trkpt>
      <trkpt lat="45.18744" lon="5.14039">
        <ele>481.59762573242</ele>
        <time>2009-04-22T12:14:40Z</time>
      </trkpt>
      <trkpt lat="45.18743" lon="5.14021">
        <ele>480.80548095703</ele>
        <time>2009-04-22T12:14:42Z</time>
      </trkpt>
      <trkpt lat="45.18753" lon="5.13967">
        <ele>478.64971923828</ele>
        <time>2009-04-22T12:14:47Z</time>
      </trkpt>
      <trkpt lat="45.1877" lon="5.13907">
        <ele>478.65286254883</ele>
        <time>2009-04-22T12:14:53Z</time>
      </trkpt>
      <trkpt lat="45.18797" lon="5.13849">
        <ele>480.61669921875</ele>
        <time>2009-04-22T12:15:00Z</time>
      </trkpt>
      <trkpt lat="45.18807" lon="5.13842">
        <ele>480.92425537109</ele>
        <time>2009-04-22T12:15:01Z</time>
      </trkpt>
      <trkpt lat="45.18821" lon="5.13847">
        <ele>478.85916137695</ele>
        <time>2009-04-22T12:15:03Z</time>
      </trkpt>
      <trkpt lat="45.1899" lon="5.14015">
        <ele>456.47705078125</ele>
        <time>2009-04-22T12:15:31Z</time>
      </trkpt>
      <trkpt lat="45.19201" lon="5.14205">
        <ele>427.67150878906</ele>
        <time>2009-04-22T12:16:04Z</time>
      </trkpt>
      <trkpt lat="45.19242" lon="5.14217">
        <ele>419.05252075195</ele>
        <time>2009-04-22T12:16:10Z</time>
      </trkpt>
      <trkpt lat="45.194" lon="5.14233">
        <ele>412.06259155273</ele>
        <time>2009-04-22T12:16:31Z</time>
      </trkpt>
      <trkpt lat="45.1943" lon="5.1424">
        <ele>406.13916015625</ele>
        <time>2009-04-22T12:16:35Z</time>
      </trkpt>
      <trkpt lat="45.19525" lon="5.14276">
        <ele>393.2541809082</ele>
        <time>2009-04-22T12:16:48Z</time>
      </trkpt>
      <trkpt lat="45.19511" lon="5.14314">
        <ele>395.50909423828</ele>
        <time>2009-04-22T12:16:52Z</time>
      </trkpt>
      <trkpt lat="45.19512" lon="5.14346">
        <ele>396.57855224609</ele>
        <time>2009-04-22T12:16:55Z</time>
      </trkpt>
      <trkpt lat="45.19529" lon="5.14378">
        <ele>396.52362060547</ele>
        <time>2009-04-22T12:16:59Z</time>
      </trkpt>
      <trkpt lat="45.19575" lon="5.14431">
        <ele>393.99456787109</ele>
        <time>2009-04-22T12:17:07Z</time>
      </trkpt>
      <trkpt lat="45.19587" lon="5.14454">
        <ele>392.95336914062</ele>
        <time>2009-04-22T12:17:09Z</time>
      </trkpt>
      <trkpt lat="45.19596" lon="5.14536">
        <ele>395.59362792969</ele>
        <time>2009-04-22T12:17:17Z</time>
      </trkpt>
      <trkpt lat="45.19598" lon="5.14631">
        <ele>398.41522216797</ele>
        <time>2009-04-22T12:17:26Z</time>
      </trkpt>
      <trkpt lat="45.19603" lon="5.14646">
        <ele>398.31692504883</ele>
        <time>2009-04-22T12:17:28Z</time>
      </trkpt>
      <trkpt lat="45.19622" lon="5.14673">
        <ele>398.97256469727</ele>
        <time>2009-04-22T12:17:31Z</time>
      </trkpt>
      <trkpt lat="45.19698" lon="5.14738">
        <ele>402.94595336914</ele>
        <time>2009-04-22T12:17:43Z</time>
      </trkpt>
      <trkpt lat="45.19716" lon="5.14769">
        <ele>404.20748901367</ele>
        <time>2009-04-22T12:17:47Z</time>
      </trkpt>
      <trkpt lat="45.19725" lon="5.14819">
        <ele>408.56286621094</ele>
        <time>2009-04-22T12:17:52Z</time>
      </trkpt>
      <trkpt lat="45.19733" lon="5.14993">
        <ele>421.87036132812</ele>
        <time>2009-04-22T12:18:08Z</time>
      </trkpt>
      <trkpt lat="45.1974" lon="5.15065">
        <ele>424.42938232422</ele>
        <time>2009-04-22T12:18:15Z</time>
      </trkpt>
      <trkpt lat="45.19757" lon="5.15171">
        <ele>426.48828125</ele>
        <time>2009-04-22T12:18:25Z</time>
      </trkpt>
      <trkpt lat="45.1987" lon="5.15528">
        <ele>411.18731689453</ele>
        <time>2009-04-22T12:19:02Z</time>
      </trkpt>
      <trkpt lat="45.1989" lon="5.15631">
        <ele>412.03497314453</ele>
        <time>2009-04-22T12:19:12Z</time>
      </trkpt>
      <trkpt lat="45.19903" lon="5.15787">
        <ele>411.25201416016</ele>
        <time>2009-04-22T12:19:27Z</time>
      </trkpt>
      <trkpt lat="45.19897" lon="5.15984">
        <ele>410.03820800781</ele>
        <time>2009-04-22T12:19:45Z</time>
      </trkpt>
      <trkpt lat="45.19879" lon="5.16067">
        <ele>411.25814819336</ele>
        <time>2009-04-22T12:19:54Z</time>
      </trkpt>
      <trkpt lat="45.19834" lon="5.16196">
        <ele>415.91320800781</ele>
        <time>2009-04-22T12:20:07Z</time>
      </trkpt>
      <trkpt lat="45.19814" lon="5.1627">
        <ele>416.61480712891</ele>
        <time>2009-04-22T12:20:15Z</time>
      </trkpt>
      <trkpt lat="45.19783" lon="5.16536">
        <ele>419.53146362305</ele>
        <time>2009-04-22T12:20:40Z</time>
      </trkpt>
      <trkpt lat="45.19786" lon="5.16587">
        <ele>422.8655090332</ele>
        <time>2009-04-22T12:20:45Z</time>
      </trkpt>
      <trkpt lat="45.19807" lon="5.16665">
        <ele>425.6057434082</ele>
        <time>2009-04-22T12:20:53Z</time>
      </trkpt>
      <trkpt lat="45.19838" lon="5.16746">
        <ele>426.57189941406</ele>
        <time>2009-04-22T12:21:01Z</time>
      </trkpt>
      <trkpt lat="45.19875" lon="5.1681">
        <ele>421.08334350586</ele>
        <time>2009-04-22T12:21:09Z</time>
      </trkpt>
      <trkpt lat="45.19881" lon="5.16831">
        <ele>420.822265625</ele>
        <time>2009-04-22T12:21:11Z</time>
      </trkpt>
      <trkpt lat="45.19881" lon="5.16958">
        <ele>424.05178833008</ele>
        <time>2009-04-22T12:21:23Z</time>
      </trkpt>
      <trkpt lat="45.19872" lon="5.17075">
        <ele>427.61151123047</ele>
        <time>2009-04-22T12:21:34Z</time>
      </trkpt>
      <trkpt lat="45.19872" lon="5.17209">
        <ele>430.8151550293</ele>
        <time>2009-04-22T12:21:47Z</time>
      </trkpt>
      <trkpt lat="45.19859" lon="5.17264">
        <ele>432.39215087891</ele>
        <time>2009-04-22T12:21:52Z</time>
      </trkpt>
      <trkpt lat="45.19801" lon="5.17414">
        <ele>438.52935791016</ele>
        <time>2009-04-22T12:22:08Z</time>
      </trkpt>
      <trkpt lat="45.19777" lon="5.1749">
        <ele>438.57061767578</ele>
        <time>2009-04-22T12:22:16Z</time>
      </trkpt>
      <trkpt lat="45.19774" lon="5.17515">
        <ele>438.93994140625</ele>
        <time>2009-04-22T12:22:19Z</time>
      </trkpt>
      <trkpt lat="45.19776" lon="5.17595">
        <ele>439.42016601562</ele>
        <time>2009-04-22T12:22:26Z</time>
      </trkpt>
      <trkpt lat="45.19772" lon="5.1762">
        <ele>440</ele>
        <time>2009-04-22T12:22:28Z</time>
      </trkpt>
      <trkpt lat="45.19704" lon="5.17865">
        <ele>440</ele>
        <time>2009-04-22T12:22:53Z</time>
      </trkpt>
      <trkpt lat="45.1971" lon="5.17884">
        <ele>440</ele>
        <time>2009-04-22T12:22:55Z</time>
      </trkpt>
      <trkpt lat="45.19727" lon="5.17911">
        <ele>440</ele>
        <time>2009-04-22T12:22:59Z</time>
      </trkpt>
      <trkpt lat="45.19733" lon="5.17938">
        <ele>440</ele>
        <time>2009-04-22T12:23:01Z</time>
      </trkpt>
      <trkpt lat="45.19735" lon="5.17974">
        <ele>441.09307861328</ele>
        <time>2009-04-22T12:23:05Z</time>
      </trkpt>
      <trkpt lat="45.1973" lon="5.18121">
        <ele>447.91583251953</ele>
        <time>2009-04-22T12:23:18Z</time>
      </trkpt>
      <trkpt lat="45.19717" lon="5.18249">
        <ele>453.37268066406</ele>
        <time>2009-04-22T12:23:31Z</time>
      </trkpt>
      <trkpt lat="45.19709" lon="5.18294">
        <ele>454.15762329102</ele>
        <time>2009-04-22T12:23:35Z</time>
      </trkpt>
      <trkpt lat="45.19702" lon="5.18325">
        <ele>454.53186035156</ele>
        <time>2009-04-22T12:23:38Z</time>
      </trkpt>
      <trkpt lat="45.19668" lon="5.18413">
        <ele>455.07733154297</ele>
        <time>2009-04-22T12:23:47Z</time>
      </trkpt>
      <trkpt lat="45.19661" lon="5.18463">
        <ele>456.5302734375</ele>
        <time>2009-04-22T12:23:52Z</time>
      </trkpt>
      <trkpt lat="45.19654" lon="5.18692">
        <ele>461.0544128418</ele>
        <time>2009-04-22T12:24:14Z</time>
      </trkpt>
      <trkpt lat="45.19665" lon="5.18785">
        <ele>466.09576416016</ele>
        <time>2009-04-22T12:24:23Z</time>
      </trkpt>
      <trkpt lat="45.19645" lon="5.18886">
        <ele>467.54800415039</ele>
        <time>2009-04-22T12:24:33Z</time>
      </trkpt>
      <trkpt lat="45.19648" lon="5.1895">
        <ele>470.18127441406</ele>
        <time>2009-04-22T12:24:39Z</time>
      </trkpt>
      <trkpt lat="45.19622" lon="5.19198">
        <ele>476.38528442383</ele>
        <time>2009-04-22T12:25:02Z</time>
      </trkpt>
      <trkpt lat="45.19611" lon="5.1943">
        <ele>479.99749755859</ele>
        <time>2009-04-22T12:25:24Z</time>
      </trkpt>
      <trkpt lat="45.19608" lon="5.19559">
        <ele>480</ele>
        <time>2009-04-22T12:25:36Z</time>
      </trkpt>
      <trkpt lat="45.19611" lon="5.19719">
        <ele>480</ele>
        <time>2009-04-22T12:25:51Z</time>
      </trkpt>
      <trkpt lat="45.19614" lon="5.19753">
        <ele>480.51614379883</ele>
        <time>2009-04-22T12:25:54Z</time>
      </trkpt>
      <trkpt lat="45.19631" lon="5.19829">
        <ele>483.12786865234</ele>
        <time>2009-04-22T12:26:02Z</time>
      </trkpt>
      <trkpt lat="45.19636" lon="5.19875">
        <ele>484.60620117188</ele>
        <time>2009-04-22T12:26:06Z</time>
      </trkpt>
      <trkpt lat="45.19636" lon="5.20107">
        <ele>486.27532958984</ele>
        <time>2009-04-22T12:26:28Z</time>
      </trkpt>
      <trkpt lat="45.19643" lon="5.20135">
        <ele>487.57424926758</ele>
        <time>2009-04-22T12:26:31Z</time>
      </trkpt>
      <trkpt lat="45.19672" lon="5.20178">
        <ele>492.6535949707</ele>
        <time>2009-04-22T12:26:37Z</time>
      </trkpt>
      <trkpt lat="45.19672" lon="5.20198">
        <ele>492.72222900391</ele>
        <time>2009-04-22T12:26:38Z</time>
      </trkpt>
      <trkpt lat="45.19663" lon="5.20215">
        <ele>491.82904052734</ele>
        <time>2009-04-22T12:26:40Z</time>
      </trkpt>
      <trkpt lat="45.19652" lon="5.20223">
        <ele>490.39166259766</ele>
        <time>2009-04-22T12:26:42Z</time>
      </trkpt>
      <trkpt lat="45.19611" lon="5.20239">
        <ele>481.99035644531</ele>
        <time>2009-04-22T12:26:48Z</time>
      </trkpt>
      <trkpt lat="45.19584" lon="5.20271">
        <ele>480.05551147461</ele>
        <time>2009-04-22T12:26:52Z</time>
      </trkpt>
      <trkpt lat="45.19567" lon="5.20302">
        <ele>475.3271484375</ele>
        <time>2009-04-22T12:26:56Z</time>
      </trkpt>
      <trkpt lat="45.19539" lon="5.20375">
        <ele>469.39794921875</ele>
        <time>2009-04-22T12:27:04Z</time>
      </trkpt>
      <trkpt lat="45.19536" lon="5.20396">
        <ele>468.99456787109</ele>
        <time>2009-04-22T12:27:06Z</time>
      </trkpt>
      <trkpt lat="45.19536" lon="5.20489">
        <ele>470.31039428711</ele>
        <time>2009-04-22T12:27:15Z</time>
      </trkpt>
      <trkpt lat="45.1953" lon="5.20516">
        <ele>468.01010131836</ele>
        <time>2009-04-22T12:27:17Z</time>
      </trkpt>
      <trkpt lat="45.19513" lon="5.20557">
        <ele>465.38189697266</ele>
        <time>2009-04-22T12:27:22Z</time>
      </trkpt>
      <trkpt lat="45.19558" lon="5.20676">
        <ele>477.00946044922</ele>
        <time>2009-04-22T12:27:35Z</time>
      </trkpt>
      <trkpt lat="45.19584" lon="5.20715">
        <ele>477.09020996094</ele>
        <time>2009-04-22T12:27:40Z</time>
      </trkpt>
      <trkpt lat="45.19604" lon="5.20731">
        <ele>477.29379272461</ele>
        <time>2009-04-22T12:27:43Z</time>
      </trkpt>
      <trkpt lat="45.19632" lon="5.20746">
        <ele>478.57598876953</ele>
        <time>2009-04-22T12:27:47Z</time>
      </trkpt>
      <trkpt lat="45.19653" lon="5.20749">
        <ele>479.57803344727</ele>
        <time>2009-04-22T12:27:49Z</time>
      </trkpt>
      <trkpt lat="45.19796" lon="5.20737">
        <ele>489.24472045898</ele>
        <time>2009-04-22T12:28:09Z</time>
      </trkpt>
      <trkpt lat="45.19829" lon="5.20741">
        <ele>490.67431640625</ele>
        <time>2009-04-22T12:28:13Z</time>
      </trkpt>
      <trkpt lat="45.1988" lon="5.20761">
        <ele>492.84124755859</ele>
        <time>2009-04-22T12:28:20Z</time>
      </trkpt>
      <trkpt lat="45.19908" lon="5.20779">
        <ele>493.25534057617</ele>
        <time>2009-04-22T12:28:24Z</time>
      </trkpt>
      <trkpt lat="45.19919" lon="5.20792">
        <ele>492.77374267578</ele>
        <time>2009-04-22T12:28:26Z</time>
      </trkpt>
      <trkpt lat="45.19935" lon="5.20831">
        <ele>491.78475952148</ele>
        <time>2009-04-22T12:28:30Z</time>
      </trkpt>
      <trkpt lat="45.19934" lon="5.2092">
        <ele>483.94009399414</ele>
        <time>2009-04-22T12:28:39Z</time>
      </trkpt>
      <trkpt lat="45.19941" lon="5.20947">
        <ele>483.23428344727</ele>
        <time>2009-04-22T12:28:41Z</time>
      </trkpt>
      <trkpt lat="45.19953" lon="5.20963">
        <ele>483.25024414062</ele>
        <time>2009-04-22T12:28:44Z</time>
      </trkpt>
      <trkpt lat="45.19988" lon="5.20988">
        <ele>484.9914855957</ele>
        <time>2009-04-22T12:28:49Z</time>
      </trkpt>
      <trkpt lat="45.2" lon="5.21003">
        <ele>484.68612670898</ele>
        <time>2009-04-22T12:28:51Z</time>
      </trkpt>
      <trkpt lat="45.20011" lon="5.21024">
        <ele>484.01321411133</ele>
        <time>2009-04-22T12:28:53Z</time>
      </trkpt>
      <trkpt lat="45.20047" lon="5.2113">
        <ele>478.72869873047</ele>
        <time>2009-04-22T12:29:04Z</time>
      </trkpt>
      <trkpt lat="45.20074" lon="5.21162">
        <ele>478.06488037109</ele>
        <time>2009-04-22T12:29:09Z</time>
      </trkpt>
      <trkpt lat="45.20232" lon="5.21131">
        <ele>493.8669128418</ele>
        <time>2009-04-22T12:29:30Z</time>
      </trkpt>
      <trkpt lat="45.203" lon="5.2111">
        <ele>500.19818115234</ele>
        <time>2009-04-22T12:29:40Z</time>
      </trkpt>
      <trkpt lat="45.20314" lon="5.21108">
        <ele>501.13446044922</ele>
        <time>2009-04-22T12:29:42Z</time>
      </trkpt>
      <trkpt lat="45.20325" lon="5.21113">
        <ele>501.31002807617</ele>
        <time>2009-04-22T12:29:43Z</time>
      </trkpt>
      <trkpt lat="45.20331" lon="5.21131">
        <ele>500.51699829102</ele>
        <time>2009-04-22T12:29:45Z</time>
      </trkpt>
      <trkpt lat="45.20327" lon="5.21147">
        <ele>499.64080810547</ele>
        <time>2009-04-22T12:29:47Z</time>
      </trkpt>
      <trkpt lat="45.20265" lon="5.21204">
        <ele>492.28549194336</ele>
        <time>2009-04-22T12:29:56Z</time>
      </trkpt>
      <trkpt lat="45.20249" lon="5.21226">
        <ele>487.50036621094</ele>
        <time>2009-04-22T12:29:59Z</time>
      </trkpt>
      <trkpt lat="45.20227" lon="5.21273">
        <ele>481.04296875</ele>
        <time>2009-04-22T12:30:05Z</time>
      </trkpt>
      <trkpt lat="45.20222" lon="5.21312">
        <ele>483.44869995117</ele>
        <time>2009-04-22T12:30:08Z</time>
      </trkpt>
      <trkpt lat="45.20223" lon="5.21338">
        <ele>485.47158813477</ele>
        <time>2009-04-22T12:30:11Z</time>
      </trkpt>
      <trkpt lat="45.2026" lon="5.21559">
        <ele>490.29544067383</ele>
        <time>2009-04-22T12:30:32Z</time>
      </trkpt>
      <trkpt lat="45.2028" lon="5.21635">
        <ele>488.38781738281</ele>
        <time>2009-04-22T12:30:40Z</time>
      </trkpt>
      <trkpt lat="45.20365" lon="5.2183">
        <ele>491.16979980469</ele>
        <time>2009-04-22T12:31:01Z</time>
      </trkpt>
      <trkpt lat="45.2036" lon="5.21857">
        <ele>491.71929931641</ele>
        <time>2009-04-22T12:31:04Z</time>
      </trkpt>
      <trkpt lat="45.20328" lon="5.2191">
        <ele>489.19915771484</ele>
        <time>2009-04-22T12:31:11Z</time>
      </trkpt>
      <trkpt lat="45.20317" lon="5.21943">
        <ele>489.19226074219</ele>
        <time>2009-04-22T12:31:14Z</time>
      </trkpt>
      <trkpt lat="45.20309" lon="5.2199">
        <ele>490.8932800293</ele>
        <time>2009-04-22T12:31:19Z</time>
      </trkpt>
      <trkpt lat="45.20309" lon="5.22015">
        <ele>491.79278564453</ele>
        <time>2009-04-22T12:31:21Z</time>
      </trkpt>
      <trkpt lat="45.20323" lon="5.22091">
        <ele>493.4443359375</ele>
        <time>2009-04-22T12:31:28Z</time>
      </trkpt>
      <trkpt lat="45.20361" lon="5.22207">
        <ele>501.32662963867</ele>
        <time>2009-04-22T12:31:40Z</time>
      </trkpt>
      <trkpt lat="45.20369" lon="5.22299">
        <ele>503.2131652832</ele>
        <time>2009-04-22T12:31:49Z</time>
      </trkpt>
      <trkpt lat="45.20411" lon="5.2245">
        <ele>507.57113647461</ele>
        <time>2009-04-22T12:32:04Z</time>
      </trkpt>
      <trkpt lat="45.20431" lon="5.2248">
        <ele>512.12762451172</ele>
        <time>2009-04-22T12:32:08Z</time>
      </trkpt>
      <trkpt lat="45.20519" lon="5.22557">
        <ele>524.93572998047</ele>
        <time>2009-04-22T12:32:22Z</time>
      </trkpt>
      <trkpt lat="45.20545" lon="5.22629">
        <ele>523.22161865234</ele>
        <time>2009-04-22T12:32:30Z</time>
      </trkpt>
      <trkpt lat="45.20564" lon="5.22661">
        <ele>523.57098388672</ele>
        <time>2009-04-22T12:32:34Z</time>
      </trkpt>
      <trkpt lat="45.20586" lon="5.22668">
        <ele>525.05114746094</ele>
        <time>2009-04-22T12:32:37Z</time>
      </trkpt>
      <trkpt lat="45.20642" lon="5.22658">
        <ele>530.67266845703</ele>
        <time>2009-04-22T12:32:44Z</time>
      </trkpt>
      <trkpt lat="45.20666" lon="5.22668">
        <ele>529.83764648438</ele>
        <time>2009-04-22T12:32:47Z</time>
      </trkpt>
      <trkpt lat="45.20818" lon="5.22705">
        <ele>529.99530029297</ele>
        <time>2009-04-22T12:33:08Z</time>
      </trkpt>
      <trkpt lat="45.20836" lon="5.22715">
        <ele>529.48376464844</ele>
        <time>2009-04-22T12:33:11Z</time>
      </trkpt>
      <trkpt lat="45.20937" lon="5.22834">
        <ele>517.818359375</ele>
        <time>2009-04-22T12:33:28Z</time>
      </trkpt>
      <trkpt lat="45.20973" lon="5.22879">
        <ele>519.42944335938</ele>
        <time>2009-04-22T12:33:35Z</time>
      </trkpt>
      <trkpt lat="45.20987" lon="5.22903">
        <ele>520.11114501953</ele>
        <time>2009-04-22T12:33:37Z</time>
      </trkpt>
      <trkpt lat="45.20994" lon="5.22931">
        <ele>520.95355224609</ele>
        <time>2009-04-22T12:33:40Z</time>
      </trkpt>
      <trkpt lat="45.20992" lon="5.22965">
        <ele>520.75744628906</ele>
        <time>2009-04-22T12:33:43Z</time>
      </trkpt>
      <trkpt lat="45.20988" lon="5.22979">
        <ele>520.7734375</ele>
        <time>2009-04-22T12:33:45Z</time>
      </trkpt>
      <trkpt lat="45.2096" lon="5.23019">
        <ele>518.93310546875</ele>
        <time>2009-04-22T12:33:50Z</time>
      </trkpt>
      <trkpt lat="45.20925" lon="5.2305">
        <ele>515.93481445312</ele>
        <time>2009-04-22T12:33:56Z</time>
      </trkpt>
      <trkpt lat="45.20905" lon="5.2306">
        <ele>516.7978515625</ele>
        <time>2009-04-22T12:33:59Z</time>
      </trkpt>
      <trkpt lat="45.20823" lon="5.23084">
        <ele>520.73907470703</ele>
        <time>2009-04-22T12:34:10Z</time>
      </trkpt>
      <trkpt lat="45.20768" lon="5.23098">
        <ele>516.8740234375</ele>
        <time>2009-04-22T12:34:17Z</time>
      </trkpt>
      <trkpt lat="45.20708" lon="5.23102">
        <ele>507.30975341797</ele>
        <time>2009-04-22T12:34:25Z</time>
      </trkpt>
      <trkpt lat="45.2069" lon="5.23112">
        <ele>505.41970825195</ele>
        <time>2009-04-22T12:34:28Z</time>
      </trkpt>
      <trkpt lat="45.20651" lon="5.23171">
        <ele>502.74240112305</ele>
        <time>2009-04-22T12:34:35Z</time>
      </trkpt>
      <trkpt lat="45.20646" lon="5.23187">
        <ele>502.24801635742</ele>
        <time>2009-04-22T12:34:37Z</time>
      </trkpt>
      <trkpt lat="45.20637" lon="5.23316">
        <ele>504.09909057617</ele>
        <time>2009-04-22T12:34:49Z</time>
      </trkpt>
      <trkpt lat="45.20643" lon="5.23489">
        <ele>511.20050048828</ele>
        <time>2009-04-22T12:35:05Z</time>
      </trkpt>
      <trkpt lat="45.20629" lon="5.23588">
        <ele>510.76089477539</ele>
        <time>2009-04-22T12:35:15Z</time>
      </trkpt>
      <trkpt lat="45.20638" lon="5.23723">
        <ele>515.91888427734</ele>
        <time>2009-04-22T12:35:28Z</time>
      </trkpt>
      <trkpt lat="45.20612" lon="5.23936">
        <ele>519.89855957031</ele>
        <time>2009-04-22T12:35:48Z</time>
      </trkpt>
      <trkpt lat="45.20608" lon="5.23953">
        <ele>521.23327636719</ele>
        <time>2009-04-22T12:35:50Z</time>
      </trkpt>
      <trkpt lat="45.20595" lon="5.23978">
        <ele>524.53491210938</ele>
        <time>2009-04-22T12:35:53Z</time>
      </trkpt>
      <trkpt lat="45.20586" lon="5.23984">
        <ele>525.23138427734</ele>
        <time>2009-04-22T12:35:54Z</time>
      </trkpt>
      <trkpt lat="45.20545" lon="5.2399">
        <ele>530.8544921875</ele>
        <time>2009-04-22T12:35:59Z</time>
      </trkpt>
      <trkpt lat="45.20529" lon="5.23981">
        <ele>532.69641113281</ele>
        <time>2009-04-22T12:36:02Z</time>
      </trkpt>
      <trkpt lat="45.20474" lon="5.23882">
        <ele>530.26843261719</ele>
        <time>2009-04-22T12:36:14Z</time>
      </trkpt>
      <trkpt lat="45.20442" lon="5.23835">
        <ele>530.74633789062</ele>
        <time>2009-04-22T12:36:20Z</time>
      </trkpt>
      <trkpt lat="45.20378" lon="5.2376">
        <ele>539.12713623047</ele>
        <time>2009-04-22T12:36:31Z</time>
      </trkpt>
      <trkpt lat="45.2033" lon="5.23682">
        <ele>540.85473632812</ele>
        <time>2009-04-22T12:36:41Z</time>
      </trkpt>
      <trkpt lat="45.20283" lon="5.23597">
        <ele>541.30865478516</ele>
        <time>2009-04-22T12:36:51Z</time>
      </trkpt>
      <trkpt lat="45.20276" lon="5.23566">
        <ele>540.67541503906</ele>
        <time>2009-04-22T12:36:54Z</time>
      </trkpt>
      <trkpt lat="45.20275" lon="5.23533">
        <ele>539.57165527344</ele>
        <time>2009-04-22T12:36:57Z</time>
      </trkpt>
      <trkpt lat="45.20277" lon="5.23443">
        <ele>531.0849609375</ele>
        <time>2009-04-22T12:37:05Z</time>
      </trkpt>
      <trkpt lat="45.20269" lon="5.234">
        <ele>529.22198486328</ele>
        <time>2009-04-22T12:37:10Z</time>
      </trkpt>
      <trkpt lat="45.20262" lon="5.23387">
        <ele>529.24066162109</ele>
        <time>2009-04-22T12:37:11Z</time>
      </trkpt>
      <trkpt lat="45.20238" lon="5.23359">
        <ele>533.98785400391</ele>
        <time>2009-04-22T12:37:15Z</time>
      </trkpt>
      <trkpt lat="45.20128" lon="5.23284">
        <ele>540</ele>
        <time>2009-04-22T12:37:31Z</time>
      </trkpt>
      <trkpt lat="45.20111" lon="5.23301">
        <ele>539.99493408203</ele>
        <time>2009-04-22T12:37:34Z</time>
      </trkpt>
      <trkpt lat="45.20126" lon="5.23376">
        <ele>541.28533935547</ele>
        <time>2009-04-22T12:37:42Z</time>
      </trkpt>
      <trkpt lat="45.20123" lon="5.23396">
        <ele>540.59295654297</ele>
        <time>2009-04-22T12:37:44Z</time>
      </trkpt>
      <trkpt lat="45.20081" lon="5.23501">
        <ele>531.15405273438</ele>
        <time>2009-04-22T12:37:55Z</time>
      </trkpt>
      <trkpt lat="45.20097" lon="5.23599">
        <ele>530.09405517578</ele>
        <time>2009-04-22T12:38:04Z</time>
      </trkpt>
      <trkpt lat="45.20095" lon="5.23617">
        <ele>529.34552001953</ele>
        <time>2009-04-22T12:38:06Z</time>
      </trkpt>
      <trkpt lat="45.20079" lon="5.23658">
        <ele>528.29016113281</ele>
        <time>2009-04-22T12:38:10Z</time>
      </trkpt>
      <trkpt lat="45.20058" lon="5.23683">
        <ele>526.62841796875</ele>
        <time>2009-04-22T12:38:14Z</time>
      </trkpt>
      <trkpt lat="45.20044" lon="5.23688">
        <ele>525.28082275391</ele>
        <time>2009-04-22T12:38:16Z</time>
      </trkpt>
      <trkpt lat="45.19915" lon="5.23691">
        <ele>506.63165283203</ele>
        <time>2009-04-22T12:38:33Z</time>
      </trkpt>
      <trkpt lat="45.19904" lon="5.23694">
        <ele>506.05145263672</ele>
        <time>2009-04-22T12:38:35Z</time>
      </trkpt>
      <trkpt lat="45.19887" lon="5.23716">
        <ele>507.08145141602</ele>
        <time>2009-04-22T12:38:38Z</time>
      </trkpt>
      <trkpt lat="45.19802" lon="5.23872">
        <ele>500.23431396484</ele>
        <time>2009-04-22T12:38:56Z</time>
      </trkpt>
      <trkpt lat="45.19736" lon="5.23973">
        <ele>493.97155761719</ele>
        <time>2009-04-22T12:39:09Z</time>
      </trkpt>
      <trkpt lat="45.19728" lon="5.24009">
        <ele>492.09875488281</ele>
        <time>2009-04-22T12:39:13Z</time>
      </trkpt>
      <trkpt lat="45.19726" lon="5.24062">
        <ele>489.85317993164</ele>
        <time>2009-04-22T12:39:18Z</time>
      </trkpt>
      <trkpt lat="45.19711" lon="5.24175">
        <ele>482.66687011719</ele>
        <time>2009-04-22T12:39:29Z</time>
      </trkpt>
      <trkpt lat="45.19711" lon="5.24352">
        <ele>482.79327392578</ele>
        <time>2009-04-22T12:39:45Z</time>
      </trkpt>
      <trkpt lat="45.19692" lon="5.24384">
        <ele>484.28747558594</ele>
        <time>2009-04-22T12:39:49Z</time>
      </trkpt>
      <trkpt lat="45.19518" lon="5.24577">
        <ele>490.24880981445</ele>
        <time>2009-04-22T12:40:19Z</time>
      </trkpt>
      <trkpt lat="45.19444" lon="5.24655">
        <ele>484.50927734375</ele>
        <time>2009-04-22T12:40:31Z</time>
      </trkpt>
      <trkpt lat="45.19433" lon="5.24675">
        <ele>483.62719726562</ele>
        <time>2009-04-22T12:40:33Z</time>
      </trkpt>
      <trkpt lat="45.19432" lon="5.24699">
        <ele>483.97964477539</ele>
        <time>2009-04-22T12:40:36Z</time>
      </trkpt>
      <trkpt lat="45.19436" lon="5.24723">
        <ele>483.43936157227</ele>
        <time>2009-04-22T12:40:38Z</time>
      </trkpt>
      <trkpt lat="45.19474" lon="5.24852">
        <ele>486.65368652344</ele>
        <time>2009-04-22T12:40:51Z</time>
      </trkpt>
      <trkpt lat="45.19478" lon="5.24899">
        <ele>486.37615966797</ele>
        <time>2009-04-22T12:40:56Z</time>
      </trkpt>
      <trkpt lat="45.19379" lon="5.24967">
        <ele>475.74880981445</ele>
        <time>2009-04-22T12:41:10Z</time>
      </trkpt>
      <trkpt lat="45.19359" lon="5.24989">
        <ele>473.80282592773</ele>
        <time>2009-04-22T12:41:14Z</time>
      </trkpt>
      <trkpt lat="45.19346" lon="5.25019">
        <ele>473.89282226562</ele>
        <time>2009-04-22T12:41:17Z</time>
      </trkpt>
      <trkpt lat="45.19311" lon="5.2515">
        <ele>473.68768310547</ele>
        <time>2009-04-22T12:41:30Z</time>
      </trkpt>
      <trkpt lat="45.19308" lon="5.25167">
        <ele>473.65032958984</ele>
        <time>2009-04-22T12:41:32Z</time>
      </trkpt>
      <trkpt lat="45.1931" lon="5.25188">
        <ele>474.88800048828</ele>
        <time>2009-04-22T12:41:34Z</time>
      </trkpt>
      <trkpt lat="45.19329" lon="5.25218">
        <ele>480.77426147461</ele>
        <time>2009-04-22T12:41:38Z</time>
      </trkpt>
      <trkpt lat="45.19342" lon="5.25258">
        <ele>483.08065795898</ele>
        <time>2009-04-22T12:41:42Z</time>
      </trkpt>
      <trkpt lat="45.19367" lon="5.25289">
        <ele>487.03842163086</ele>
        <time>2009-04-22T12:41:46Z</time>
      </trkpt>
      <trkpt lat="45.19372" lon="5.25301">
        <ele>487.95336914062</ele>
        <time>2009-04-22T12:41:47Z</time>
      </trkpt>
      <trkpt lat="45.19373" lon="5.25311">
        <ele>487.58938598633</ele>
        <time>2009-04-22T12:41:48Z</time>
      </trkpt>
      <trkpt lat="45.19362" lon="5.25351">
        <ele>482.55712890625</ele>
        <time>2009-04-22T12:41:52Z</time>
      </trkpt>
      <trkpt lat="45.19365" lon="5.25391">
        <ele>481.07864379883</ele>
        <time>2009-04-22T12:41:56Z</time>
      </trkpt>
      <trkpt lat="45.19362" lon="5.25406">
        <ele>480.18676757812</ele>
        <time>2009-04-22T12:41:58Z</time>
      </trkpt>
      <trkpt lat="45.19349" lon="5.25424">
        <ele>479.70877075195</ele>
        <time>2009-04-22T12:42:00Z</time>
      </trkpt>
      <trkpt lat="45.19314" lon="5.25438">
        <ele>478.134765625</ele>
        <time>2009-04-22T12:42:05Z</time>
      </trkpt>
      <trkpt lat="45.19292" lon="5.25455">
        <ele>477.59332275391</ele>
        <time>2009-04-22T12:42:08Z</time>
      </trkpt>
      <trkpt lat="45.19228" lon="5.25557">
        <ele>482.56997680664</ele>
        <time>2009-04-22T12:42:21Z</time>
      </trkpt>
      <trkpt lat="45.19167" lon="5.25602">
        <ele>482.35787963867</ele>
        <time>2009-04-22T12:42:30Z</time>
      </trkpt>
      <trkpt lat="45.19151" lon="5.25637">
        <ele>483.16436767578</ele>
        <time>2009-04-22T12:42:34Z</time>
      </trkpt>
      <trkpt lat="45.19154" lon="5.25643">
        <ele>483.77798461914</ele>
        <time>2009-04-22T12:42:35Z</time>
      </trkpt>
      <trkpt lat="45.19142" lon="5.2566">
        <ele>483.11193847656</ele>
        <time>2009-04-22T12:42:37Z</time>
      </trkpt>
      <trkpt lat="45.19133" lon="5.25686">
        <ele>483.27087402344</ele>
        <time>2009-04-22T12:42:40Z</time>
      </trkpt>
      <trkpt lat="45.19075" lon="5.25923">
        <ele>483.03024291992</ele>
        <time>2009-04-22T12:43:03Z</time>
      </trkpt>
      <trkpt lat="45.19022" lon="5.26013">
        <ele>477.49008178711</ele>
        <time>2009-04-22T12:43:15Z</time>
      </trkpt>
      <trkpt lat="45.19013" lon="5.26055">
        <ele>474.3298034668</ele>
        <time>2009-04-22T12:43:19Z</time>
      </trkpt>
      <trkpt lat="45.19006" lon="5.26171">
        <ele>469.82550048828</ele>
        <time>2009-04-22T12:43:30Z</time>
      </trkpt>
      <trkpt lat="45.18975" lon="5.26208">
        <ele>464.92095947266</ele>
        <time>2009-04-22T12:43:35Z</time>
      </trkpt>
      <trkpt lat="45.18931" lon="5.26249">
        <ele>456.62133789062</ele>
        <time>2009-04-22T12:43:42Z</time>
      </trkpt>
      <trkpt lat="45.18893" lon="5.26295">
        <ele>448.44952392578</ele>
        <time>2009-04-22T12:43:49Z</time>
      </trkpt>
      <trkpt lat="45.18877" lon="5.26298">
        <ele>447.26226806641</ele>
        <time>2009-04-22T12:43:51Z</time>
      </trkpt>
      <trkpt lat="45.18905" lon="5.26364">
        <ele>447.6669921875</ele>
        <time>2009-04-22T12:43:58Z</time>
      </trkpt>
      <trkpt lat="45.18917" lon="5.26412">
        <ele>448.14016723633</ele>
        <time>2009-04-22T12:44:03Z</time>
      </trkpt>
      <trkpt lat="45.18923" lon="5.26527">
        <ele>446.44198608398</ele>
        <time>2009-04-22T12:44:14Z</time>
      </trkpt>
      <trkpt lat="45.18935" lon="5.26634">
        <ele>444.27493286133</ele>
        <time>2009-04-22T12:44:24Z</time>
      </trkpt>
      <trkpt lat="45.18935" lon="5.26706">
        <ele>442.70709228516</ele>
        <time>2009-04-22T12:44:31Z</time>
      </trkpt>
      <trkpt lat="45.18949" lon="5.26733">
        <ele>442.77996826172</ele>
        <time>2009-04-22T12:44:34Z</time>
      </trkpt>
      <trkpt lat="45.18965" lon="5.26751">
        <ele>442.70959472656</ele>
        <time>2009-04-22T12:44:37Z</time>
      </trkpt>
      <trkpt lat="45.18992" lon="5.26775">
        <ele>442.8786315918</ele>
        <time>2009-04-22T12:44:41Z</time>
      </trkpt>
      <trkpt lat="45.19046" lon="5.26806">
        <ele>442.61224365234</ele>
        <time>2009-04-22T12:44:49Z</time>
      </trkpt>
      <trkpt lat="45.19065" lon="5.26822">
        <ele>441.77117919922</ele>
        <time>2009-04-22T12:44:52Z</time>
      </trkpt>
      <trkpt lat="45.19087" lon="5.26872">
        <ele>439.34106445312</ele>
        <time>2009-04-22T12:44:57Z</time>
      </trkpt>
      <trkpt lat="45.191" lon="5.26934">
        <ele>434.35852050781</ele>
        <time>2009-04-22T12:45:03Z</time>
      </trkpt>
      <trkpt lat="45.19104" lon="5.26969">
        <ele>431.09173583984</ele>
        <time>2009-04-22T12:45:06Z</time>
      </trkpt>
      <trkpt lat="45.19094" lon="5.27003">
        <ele>429.06286621094</ele>
        <time>2009-04-22T12:45:10Z</time>
      </trkpt>
      <trkpt lat="45.19075" lon="5.27032">
        <ele>425.09732055664</ele>
        <time>2009-04-22T12:45:14Z</time>
      </trkpt>
      <trkpt lat="45.19024" lon="5.2707">
        <ele>418.82037353516</ele>
        <time>2009-04-22T12:45:21Z</time>
      </trkpt>
      <trkpt lat="45.18993" lon="5.27101">
        <ele>415.63671875</ele>
        <time>2009-04-22T12:45:26Z</time>
      </trkpt>
      <trkpt lat="45.18984" lon="5.27129">
        <ele>413.33898925781</ele>
        <time>2009-04-22T12:45:29Z</time>
      </trkpt>
      <trkpt lat="45.18988" lon="5.27165">
        <ele>410.15567016602</ele>
        <time>2009-04-22T12:45:33Z</time>
      </trkpt>
      <trkpt lat="45.19004" lon="5.27201">
        <ele>408.64080810547</ele>
        <time>2009-04-22T12:45:37Z</time>
      </trkpt>
      <trkpt lat="45.19025" lon="5.27228">
        <ele>406.58245849609</ele>
        <time>2009-04-22T12:45:41Z</time>
      </trkpt>
      <trkpt lat="45.19107" lon="5.27272">
        <ele>404.47952270508</ele>
        <time>2009-04-22T12:45:52Z</time>
      </trkpt>
      <trkpt lat="45.19125" lon="5.27288">
        <ele>403.76287841797</ele>
        <time>2009-04-22T12:45:55Z</time>
      </trkpt>
      <trkpt lat="45.19133" lon="5.27315">
        <ele>401.84030151367</ele>
        <time>2009-04-22T12:45:58Z</time>
      </trkpt>
      <trkpt lat="45.19143" lon="5.27394">
        <ele>400</ele>
        <time>2009-04-22T12:46:05Z</time>
      </trkpt>
      <trkpt lat="45.1911" lon="5.27412">
        <ele>400</ele>
        <time>2009-04-22T12:46:10Z</time>
      </trkpt>
      <trkpt lat="45.19063" lon="5.27447">
        <ele>400</ele>
        <time>2009-04-22T12:46:17Z</time>
      </trkpt>
      <trkpt lat="45.19033" lon="5.27477">
        <ele>400</ele>
        <time>2009-04-22T12:46:22Z</time>
      </trkpt>
      <trkpt lat="45.19002" lon="5.27528">
        <ele>400</ele>
        <time>2009-04-22T12:46:28Z</time>
      </trkpt>
      <trkpt lat="45.18961" lon="5.27608">
        <ele>400</ele>
        <time>2009-04-22T12:46:38Z</time>
      </trkpt>
      <trkpt lat="45.18905" lon="5.27698">
        <ele>398.15112304688</ele>
        <time>2009-04-22T12:46:49Z</time>
      </trkpt>
      <trkpt lat="45.18791" lon="5.27868">
        <ele>382.9133605957</ele>
        <time>2009-04-22T12:47:11Z</time>
      </trkpt>
      <trkpt lat="45.18589" lon="5.28154">
        <ele>380</ele>
        <time>2009-04-22T12:47:49Z</time>
      </trkpt>
      <trkpt lat="45.18637" lon="5.28241">
        <ele>380</ele>
        <time>2009-04-22T12:48:00Z</time>
      </trkpt>
      <trkpt lat="45.18659" lon="5.28291">
        <ele>380</ele>
        <time>2009-04-22T12:48:05Z</time>
      </trkpt>
      <trkpt lat="45.18665" lon="5.2836">
        <ele>380</ele>
        <time>2009-04-22T12:48:12Z</time>
      </trkpt>
      <trkpt lat="45.18672" lon="5.28393">
        <ele>380</ele>
        <time>2009-04-22T12:48:15Z</time>
      </trkpt>
      <trkpt lat="45.18707" lon="5.28457">
        <ele>384.48641967773</ele>
        <time>2009-04-22T12:48:22Z</time>
      </trkpt>
      <trkpt lat="45.1872" lon="5.28498">
        <ele>390.24197387695</ele>
        <time>2009-04-22T12:48:27Z</time>
      </trkpt>
      <trkpt lat="45.18723" lon="5.2858">
        <ele>393.95483398438</ele>
        <time>2009-04-22T12:48:34Z</time>
      </trkpt>
      <trkpt lat="45.18704" lon="5.28662">
        <ele>394.84747314453</ele>
        <time>2009-04-22T12:48:43Z</time>
      </trkpt>
      <trkpt lat="45.18699" lon="5.28709">
        <ele>397.80606079102</ele>
        <time>2009-04-22T12:48:47Z</time>
      </trkpt>
      <trkpt lat="45.18723" lon="5.28858">
        <ele>410.93771362305</ele>
        <time>2009-04-22T12:49:01Z</time>
      </trkpt>
      <trkpt lat="45.18766" lon="5.29009">
        <ele>409.82925415039</ele>
        <time>2009-04-22T12:49:17Z</time>
      </trkpt>
      <trkpt lat="45.18784" lon="5.29106">
        <ele>408.44445800781</ele>
        <time>2009-04-22T12:49:26Z</time>
      </trkpt>
      <trkpt lat="45.18815" lon="5.29146">
        <ele>409.58349609375</ele>
        <time>2009-04-22T12:49:32Z</time>
      </trkpt>
      <trkpt lat="45.18879" lon="5.29179">
        <ele>412.55596923828</ele>
        <time>2009-04-22T12:49:41Z</time>
      </trkpt>
      <trkpt lat="45.18915" lon="5.29207">
        <ele>413.95993041992</ele>
        <time>2009-04-22T12:49:46Z</time>
      </trkpt>
      <trkpt lat="45.19021" lon="5.29338">
        <ele>413.1662902832</ele>
        <time>2009-04-22T12:50:05Z</time>
      </trkpt>
      <trkpt lat="45.19099" lon="5.29426">
        <ele>405.99172973633</ele>
        <time>2009-04-22T12:50:18Z</time>
      </trkpt>
      <trkpt lat="45.19116" lon="5.29453">
        <ele>402.6516418457</ele>
        <time>2009-04-22T12:50:22Z</time>
      </trkpt>
      <trkpt lat="45.1923" lon="5.29815">
        <ele>395.21179199219</ele>
        <time>2009-04-22T12:50:59Z</time>
      </trkpt>
      <trkpt lat="45.1924" lon="5.29837">
        <ele>395.34005737305</ele>
        <time>2009-04-22T12:51:01Z</time>
      </trkpt>
      <trkpt lat="45.19263" lon="5.29869">
        <ele>396.75421142578</ele>
        <time>2009-04-22T12:51:06Z</time>
      </trkpt>
      <trkpt lat="45.19341" lon="5.29954">
        <ele>403.88870239258</ele>
        <time>2009-04-22T12:51:19Z</time>
      </trkpt>
      <trkpt lat="45.19355" lon="5.29981">
        <ele>405.63012695312</ele>
        <time>2009-04-22T12:51:22Z</time>
      </trkpt>
      <trkpt lat="45.19381" lon="5.30129">
        <ele>411.32678222656</ele>
        <time>2009-04-22T12:51:36Z</time>
      </trkpt>
      <trkpt lat="45.19398" lon="5.30292">
        <ele>418.16656494141</ele>
        <time>2009-04-22T12:51:52Z</time>
      </trkpt>
      <trkpt lat="45.1941" lon="5.30321">
        <ele>420.16613769531</ele>
        <time>2009-04-22T12:51:55Z</time>
      </trkpt>
      <trkpt lat="45.19422" lon="5.30338">
        <ele>421.42413330078</ele>
        <time>2009-04-22T12:51:57Z</time>
      </trkpt>
      <trkpt lat="45.1954" lon="5.30404">
        <ele>430.67575073242</ele>
        <time>2009-04-22T12:52:14Z</time>
      </trkpt>
      <trkpt lat="45.19597" lon="5.30493">
        <ele>427.46615600586</ele>
        <time>2009-04-22T12:52:26Z</time>
      </trkpt>
      <trkpt lat="45.19671" lon="5.30578">
        <ele>423.9201965332</ele>
        <time>2009-04-22T12:52:38Z</time>
      </trkpt>
      <trkpt lat="45.1968" lon="5.30583">
        <ele>423.52880859375</ele>
        <time>2009-04-22T12:52:40Z</time>
      </trkpt>
      <trkpt lat="45.19777" lon="5.30599">
        <ele>428.24362182617</ele>
        <time>2009-04-22T12:52:53Z</time>
      </trkpt>
      <trkpt lat="45.19926" lon="5.30613">
        <ele>436.27056884766</ele>
        <time>2009-04-22T12:53:13Z</time>
      </trkpt>
      <trkpt lat="45.20018" lon="5.30571">
        <ele>450.22290039062</ele>
        <time>2009-04-22T12:53:25Z</time>
      </trkpt>
      <trkpt lat="45.20044" lon="5.30565">
        <ele>451.87780761719</ele>
        <time>2009-04-22T12:53:29Z</time>
      </trkpt>
      <trkpt lat="45.20132" lon="5.30573">
        <ele>451.61676025391</ele>
        <time>2009-04-22T12:53:41Z</time>
      </trkpt>
      <trkpt lat="45.20237" lon="5.30572">
        <ele>452.98205566406</ele>
        <time>2009-04-22T12:53:55Z</time>
      </trkpt>
      <trkpt lat="45.20384" lon="5.30511">
        <ele>469.58447265625</ele>
        <time>2009-04-22T12:54:15Z</time>
      </trkpt>
      <trkpt lat="45.2041" lon="5.30506">
        <ele>472.45288085938</ele>
        <time>2009-04-22T12:54:19Z</time>
      </trkpt>
      <trkpt lat="45.20505" lon="5.30536">
        <ele>472.48394775391</ele>
        <time>2009-04-22T12:54:32Z</time>
      </trkpt>
      <trkpt lat="45.2059" lon="5.30596">
        <ele>471.68142700195</ele>
        <time>2009-04-22T12:54:44Z</time>
      </trkpt>
      <trkpt lat="45.20628" lon="5.30657">
        <ele>469.12408447266</ele>
        <time>2009-04-22T12:54:52Z</time>
      </trkpt>
      <trkpt lat="45.20676" lon="5.30746">
        <ele>465.54202270508</ele>
        <time>2009-04-22T12:55:02Z</time>
      </trkpt>
      <trkpt lat="45.20775" lon="5.30944">
        <ele>460.06936645508</ele>
        <time>2009-04-22T12:55:25Z</time>
      </trkpt>
      <trkpt lat="45.20816" lon="5.30983">
        <ele>464.18264770508</ele>
        <time>2009-04-22T12:55:32Z</time>
      </trkpt>
      <trkpt lat="45.2098" lon="5.31116">
        <ele>478.45083618164</ele>
        <time>2009-04-22T12:55:57Z</time>
      </trkpt>
      <trkpt lat="45.20984" lon="5.31124">
        <ele>477.29153442383</ele>
        <time>2009-04-22T12:55:58Z</time>
      </trkpt>
      <trkpt lat="45.20986" lon="5.31142">
        <ele>474.66903686523</ele>
        <time>2009-04-22T12:56:00Z</time>
      </trkpt>
      <trkpt lat="45.2098" lon="5.3117">
        <ele>471.15466308594</ele>
        <time>2009-04-22T12:56:02Z</time>
      </trkpt>
      <trkpt lat="45.20937" lon="5.31276">
        <ele>466.04608154297</ele>
        <time>2009-04-22T12:56:14Z</time>
      </trkpt>
      <trkpt lat="45.20932" lon="5.31297">
        <ele>466.65942382812</ele>
        <time>2009-04-22T12:56:16Z</time>
      </trkpt>
      <trkpt lat="45.20929" lon="5.31345">
        <ele>470.53817749023</ele>
        <time>2009-04-22T12:56:21Z</time>
      </trkpt>
      <trkpt lat="45.20946" lon="5.31356">
        <ele>471.99713134766</ele>
        <time>2009-04-22T12:56:23Z</time>
      </trkpt>
      <trkpt lat="45.20972" lon="5.31363">
        <ele>475.11935424805</ele>
        <time>2009-04-22T12:56:27Z</time>
      </trkpt>
      <trkpt lat="45.21123" lon="5.31396">
        <ele>484.05578613281</ele>
        <time>2009-04-22T12:56:47Z</time>
      </trkpt>
      <trkpt lat="45.21143" lon="5.31409">
        <ele>486.46264648438</ele>
        <time>2009-04-22T12:56:50Z</time>
      </trkpt>
      <trkpt lat="45.21162" lon="5.31429">
        <ele>490.36895751953</ele>
        <time>2009-04-22T12:56:53Z</time>
      </trkpt>
      <trkpt lat="45.2121" lon="5.31507">
        <ele>506.51690673828</ele>
        <time>2009-04-22T12:57:03Z</time>
      </trkpt>
      <trkpt lat="45.21352" lon="5.31458">
        <ele>508.431640625</ele>
        <time>2009-04-22T12:57:22Z</time>
      </trkpt>
      <trkpt lat="45.21427" lon="5.31416">
        <ele>498.70617675781</ele>
        <time>2009-04-22T12:57:33Z</time>
      </trkpt>
      <trkpt lat="45.21448" lon="5.31411">
        <ele>499.82913208008</ele>
        <time>2009-04-22T12:57:36Z</time>
      </trkpt>
      <trkpt lat="45.21457" lon="5.31416">
        <ele>500.83755493164</ele>
        <time>2009-04-22T12:57:37Z</time>
      </trkpt>
      <trkpt lat="45.21488" lon="5.31461">
        <ele>511.76593017578</ele>
        <time>2009-04-22T12:57:43Z</time>
      </trkpt>
      <trkpt lat="45.21564" lon="5.31596">
        <ele>536.77325439453</ele>
        <time>2009-04-22T12:57:59Z</time>
      </trkpt>
      <trkpt lat="45.2158" lon="5.31608">
        <ele>539.51977539062</ele>
        <time>2009-04-22T12:58:02Z</time>
      </trkpt>
      <trkpt lat="45.21638" lon="5.31603">
        <ele>541.12426757812</ele>
        <time>2009-04-22T12:58:10Z</time>
      </trkpt>
      <trkpt lat="45.21682" lon="5.31648">
        <ele>552.90692138672</ele>
        <time>2009-04-22T12:58:17Z</time>
      </trkpt>
      <trkpt lat="45.21688" lon="5.31661">
        <ele>554.31500244141</ele>
        <time>2009-04-22T12:58:18Z</time>
      </trkpt>
      <trkpt lat="45.21696" lon="5.31711">
        <ele>559.15710449219</ele>
        <time>2009-04-22T12:58:23Z</time>
      </trkpt>
      <trkpt lat="45.21713" lon="5.31732">
        <ele>560.62762451172</ele>
        <time>2009-04-22T12:58:26Z</time>
      </trkpt>
      <trkpt lat="45.21762" lon="5.31757">
        <ele>560</ele>
        <time>2009-04-22T12:58:33Z</time>
      </trkpt>
      <trkpt lat="45.21772" lon="5.31767">
        <ele>560</ele>
        <time>2009-04-22T12:58:35Z</time>
      </trkpt>
      <trkpt lat="45.21791" lon="5.31792">
        <ele>560</ele>
        <time>2009-04-22T12:58:38Z</time>
      </trkpt>
      <trkpt lat="45.21824" lon="5.3185">
        <ele>560</ele>
        <time>2009-04-22T12:58:45Z</time>
      </trkpt>
      <trkpt lat="45.21867" lon="5.31909">
        <ele>560</ele>
        <time>2009-04-22T12:58:53Z</time>
      </trkpt>
      <trkpt lat="45.21888" lon="5.31925">
        <ele>560</ele>
        <time>2009-04-22T12:58:56Z</time>
      </trkpt>
      <trkpt lat="45.21997" lon="5.31937">
        <ele>571.30725097656</ele>
        <time>2009-04-22T12:59:11Z</time>
      </trkpt>
      <trkpt lat="45.22014" lon="5.31921">
        <ele>575.02777099609</ele>
        <time>2009-04-22T12:59:14Z</time>
      </trkpt>
      <trkpt lat="45.22052" lon="5.31853">
        <ele>586.07165527344</ele>
        <time>2009-04-22T12:59:22Z</time>
      </trkpt>
      <trkpt lat="45.22061" lon="5.31828">
        <ele>589.17858886719</ele>
        <time>2009-04-22T12:59:24Z</time>
      </trkpt>
      <trkpt lat="45.22061" lon="5.31797">
        <ele>592.22241210938</ele>
        <time>2009-04-22T12:59:27Z</time>
      </trkpt>
      <trkpt lat="45.22056" lon="5.31788">
        <ele>592.29107666016</ele>
        <time>2009-04-22T12:59:28Z</time>
      </trkpt>
      <trkpt lat="45.21977" lon="5.31738">
        <ele>586.36437988281</ele>
        <time>2009-04-22T12:59:40Z</time>
      </trkpt>
      <trkpt lat="45.2195" lon="5.31703">
        <ele>583.37200927734</ele>
        <time>2009-04-22T12:59:45Z</time>
      </trkpt>
      <trkpt lat="45.2194" lon="5.31681">
        <ele>582.9619140625</ele>
        <time>2009-04-22T12:59:47Z</time>
      </trkpt>
      <trkpt lat="45.21931" lon="5.31636">
        <ele>584.134765625</ele>
        <time>2009-04-22T12:59:52Z</time>
      </trkpt>
      <trkpt lat="45.21946" lon="5.31516">
        <ele>600.93927001953</ele>
        <time>2009-04-22T13:00:03Z</time>
      </trkpt>
      <trkpt lat="45.21944" lon="5.31498">
        <ele>603.34405517578</ele>
        <time>2009-04-22T13:00:05Z</time>
      </trkpt>
      <trkpt lat="45.21939" lon="5.31488">
        <ele>604.88562011719</ele>
        <time>2009-04-22T13:00:06Z</time>
      </trkpt>
      <trkpt lat="45.2183" lon="5.31401">
        <ele>599.54699707031</ele>
        <time>2009-04-22T13:00:23Z</time>
      </trkpt>
      <trkpt lat="45.21782" lon="5.31335">
        <ele>583.05157470703</ele>
        <time>2009-04-22T13:00:32Z</time>
      </trkpt>
      <trkpt lat="45.21735" lon="5.31279">
        <ele>562.86761474609</ele>
        <time>2009-04-22T13:00:40Z</time>
      </trkpt>
      <trkpt lat="45.21726" lon="5.31259">
        <ele>556.22991943359</ele>
        <time>2009-04-22T13:00:42Z</time>
      </trkpt>
      <trkpt lat="45.21718" lon="5.31208">
        <ele>538.74322509766</ele>
        <time>2009-04-22T13:00:47Z</time>
      </trkpt>
      <trkpt lat="45.21709" lon="5.31191">
        <ele>532.63073730469</ele>
        <time>2009-04-22T13:00:49Z</time>
      </trkpt>
      <trkpt lat="45.21703" lon="5.31166">
        <ele>523.72491455078</ele>
        <time>2009-04-22T13:00:51Z</time>
      </trkpt>
      <trkpt lat="45.2171" lon="5.31142">
        <ele>520.78594970703</ele>
        <time>2009-04-22T13:00:54Z</time>
      </trkpt>
      <trkpt lat="45.21726" lon="5.31132">
        <ele>521.80108642578</ele>
        <time>2009-04-22T13:00:56Z</time>
      </trkpt>
      <trkpt lat="45.21808" lon="5.31121">
        <ele>535.29711914062</ele>
        <time>2009-04-22T13:01:07Z</time>
      </trkpt>
      <trkpt lat="45.21828" lon="5.31126">
        <ele>540.78393554688</ele>
        <time>2009-04-22T13:01:10Z</time>
      </trkpt>
      <trkpt lat="45.21874" lon="5.31156">
        <ele>559.05053710938</ele>
        <time>2009-04-22T13:01:17Z</time>
      </trkpt>
      <trkpt lat="45.21901" lon="5.31163">
        <ele>565.91619873047</ele>
        <time>2009-04-22T13:01:20Z</time>
      </trkpt>
      <trkpt lat="45.2192" lon="5.31158">
        <ele>567.13543701172</ele>
        <time>2009-04-22T13:01:23Z</time>
      </trkpt>
      <trkpt lat="45.21998" lon="5.31119">
        <ele>559.20172119141</ele>
        <time>2009-04-22T13:01:34Z</time>
      </trkpt>
      <trkpt lat="45.22016" lon="5.31118">
        <ele>558.98095703125</ele>
        <time>2009-04-22T13:01:36Z</time>
      </trkpt>
      <trkpt lat="45.22059" lon="5.31128">
        <ele>559.67901611328</ele>
        <time>2009-04-22T13:01:42Z</time>
      </trkpt>
      <trkpt lat="45.22083" lon="5.31127">
        <ele>559.30139160156</ele>
        <time>2009-04-22T13:01:45Z</time>
      </trkpt>
      <trkpt lat="45.22131" lon="5.31144">
        <ele>566.83966064453</ele>
        <time>2009-04-22T13:01:52Z</time>
      </trkpt>
      <trkpt lat="45.2219" lon="5.31145">
        <ele>561.20343017578</ele>
        <time>2009-04-22T13:02:00Z</time>
      </trkpt>
      <trkpt lat="45.22196" lon="5.31151">
        <ele>562.00555419922</ele>
        <time>2009-04-22T13:02:01Z</time>
      </trkpt>
      <trkpt lat="45.22206" lon="5.31177">
        <ele>567.08630371094</ele>
        <time>2009-04-22T13:02:04Z</time>
      </trkpt>
      <trkpt lat="45.22214" lon="5.31221">
        <ele>577.61212158203</ele>
        <time>2009-04-22T13:02:08Z</time>
      </trkpt>
      <trkpt lat="45.2222" lon="5.31236">
        <ele>581.21887207031</ele>
        <time>2009-04-22T13:02:09Z</time>
      </trkpt>
      <trkpt lat="45.22232" lon="5.3124">
        <ele>580.21844482422</ele>
        <time>2009-04-22T13:02:11Z</time>
      </trkpt>
      <trkpt lat="45.22266" lon="5.31234">
        <ele>572.26013183594</ele>
        <time>2009-04-22T13:02:16Z</time>
      </trkpt>
      <trkpt lat="45.22281" lon="5.31241">
        <ele>571.62176513672</ele>
        <time>2009-04-22T13:02:18Z</time>
      </trkpt>
      <trkpt lat="45.22286" lon="5.31293">
        <ele>583.29022216797</ele>
        <time>2009-04-22T13:02:23Z</time>
      </trkpt>
      <trkpt lat="45.22293" lon="5.31314">
        <ele>586.33837890625</ele>
        <time>2009-04-22T13:02:25Z</time>
      </trkpt>
      <trkpt lat="45.22349" lon="5.31353">
        <ele>584.271484375</ele>
        <time>2009-04-22T13:02:33Z</time>
      </trkpt>
      <trkpt lat="45.22386" lon="5.31424">
        <ele>590.81311035156</ele>
        <time>2009-04-22T13:02:41Z</time>
      </trkpt>
      <trkpt lat="45.22394" lon="5.31427">
        <ele>591.3486328125</ele>
        <time>2009-04-22T13:02:43Z</time>
      </trkpt>
      <trkpt lat="45.22428" lon="5.3141">
        <ele>586.55541992188</ele>
        <time>2009-04-22T13:02:47Z</time>
      </trkpt>
      <trkpt lat="45.22467" lon="5.31402">
        <ele>584.45098876953</ele>
        <time>2009-04-22T13:02:53Z</time>
      </trkpt>
      <trkpt lat="45.22505" lon="5.31414">
        <ele>586.72198486328</ele>
        <time>2009-04-22T13:02:58Z</time>
      </trkpt>
      <trkpt lat="45.22553" lon="5.31444">
        <ele>593.07556152344</ele>
        <time>2009-04-22T13:03:05Z</time>
      </trkpt>
      <trkpt lat="45.22565" lon="5.31459">
        <ele>594.06713867188</ele>
        <time>2009-04-22T13:03:07Z</time>
      </trkpt>
      <trkpt lat="45.22581" lon="5.31492">
        <ele>598.51202392578</ele>
        <time>2009-04-22T13:03:11Z</time>
      </trkpt>
      <trkpt lat="45.22584" lon="5.31532">
        <ele>605.34271240234</ele>
        <time>2009-04-22T13:03:15Z</time>
      </trkpt>
      <trkpt lat="45.22575" lon="5.31598">
        <ele>615.64227294922</ele>
        <time>2009-04-22T13:03:21Z</time>
      </trkpt>
      <trkpt lat="45.22576" lon="5.31616">
        <ele>618.09600830078</ele>
        <time>2009-04-22T13:03:23Z</time>
      </trkpt>
      <trkpt lat="45.2258" lon="5.31631">
        <ele>620.78076171875</ele>
        <time>2009-04-22T13:03:24Z</time>
      </trkpt>
      <trkpt lat="45.22595" lon="5.3164">
        <ele>620.50476074219</ele>
        <time>2009-04-22T13:03:26Z</time>
      </trkpt>
      <trkpt lat="45.2263" lon="5.31617">
        <ele>612.03161621094</ele>
        <time>2009-04-22T13:03:31Z</time>
      </trkpt>
      <trkpt lat="45.22659" lon="5.31606">
        <ele>607.82269287109</ele>
        <time>2009-04-22T13:03:35Z</time>
      </trkpt>
      <trkpt lat="45.22718" lon="5.31611">
        <ele>606.68188476562</ele>
        <time>2009-04-22T13:03:43Z</time>
      </trkpt>
      <trkpt lat="45.22816" lon="5.31562">
        <ele>612.72479248047</ele>
        <time>2009-04-22T13:03:57Z</time>
      </trkpt>
      <trkpt lat="45.22831" lon="5.31542">
        <ele>614.34460449219</ele>
        <time>2009-04-22T13:04:00Z</time>
      </trkpt>
      <trkpt lat="45.22899" lon="5.31391">
        <ele>634.54119873047</ele>
        <time>2009-04-22T13:04:17Z</time>
      </trkpt>
      <trkpt lat="45.22935" lon="5.31344">
        <ele>640.44769287109</ele>
        <time>2009-04-22T13:04:23Z</time>
      </trkpt>
      <trkpt lat="45.22965" lon="5.31318">
        <ele>643.46984863281</ele>
        <time>2009-04-22T13:04:28Z</time>
      </trkpt>
      <trkpt lat="45.22969" lon="5.31309">
        <ele>643.77197265625</ele>
        <time>2009-04-22T13:04:29Z</time>
      </trkpt>
      <trkpt lat="45.22991" lon="5.31249">
        <ele>646.73168945312</ele>
        <time>2009-04-22T13:04:35Z</time>
      </trkpt>
      <trkpt lat="45.23003" lon="5.31179">
        <ele>648.30584716797</ele>
        <time>2009-04-22T13:04:42Z</time>
      </trkpt>
      <trkpt lat="45.23" lon="5.31141">
        <ele>643.2158203125</ele>
        <time>2009-04-22T13:04:46Z</time>
      </trkpt>
      <trkpt lat="45.22986" lon="5.31059">
        <ele>637.26507568359</ele>
        <time>2009-04-22T13:04:54Z</time>
      </trkpt>
      <trkpt lat="45.2299" lon="5.31022">
        <ele>640.26550292969</ele>
        <time>2009-04-22T13:04:57Z</time>
      </trkpt>
      <trkpt lat="45.23019" lon="5.3098">
        <ele>648.56323242188</ele>
        <time>2009-04-22T13:05:03Z</time>
      </trkpt>
      <trkpt lat="45.23105" lon="5.30952">
        <ele>662.77490234375</ele>
        <time>2009-04-22T13:05:14Z</time>
      </trkpt>
      <trkpt lat="45.2312" lon="5.30938">
        <ele>663.97265625</ele>
        <time>2009-04-22T13:05:17Z</time>
      </trkpt>
      <trkpt lat="45.23196" lon="5.30816">
        <ele>674.83148193359</ele>
        <time>2009-04-22T13:05:32Z</time>
      </trkpt>
      <trkpt lat="45.23206" lon="5.30791">
        <ele>676.13238525391</ele>
        <time>2009-04-22T13:05:35Z</time>
      </trkpt>
      <trkpt lat="45.23221" lon="5.30728">
        <ele>676.00708007812</ele>
        <time>2009-04-22T13:05:41Z</time>
      </trkpt>
      <trkpt lat="45.23234" lon="5.30694">
        <ele>677.56640625</ele>
        <time>2009-04-22T13:05:45Z</time>
      </trkpt>
      <trkpt lat="45.23243" lon="5.30683">
        <ele>679.06506347656</ele>
        <time>2009-04-22T13:05:46Z</time>
      </trkpt>
      <trkpt lat="45.23265" lon="5.3067">
        <ele>681.14068603516</ele>
        <time>2009-04-22T13:05:49Z</time>
      </trkpt>
      <trkpt lat="45.23304" lon="5.30667">
        <ele>682.93151855469</ele>
        <time>2009-04-22T13:05:55Z</time>
      </trkpt>
      <trkpt lat="45.23333" lon="5.30671">
        <ele>684.81921386719</ele>
        <time>2009-04-22T13:05:59Z</time>
      </trkpt>
      <trkpt lat="45.23355" lon="5.30664">
        <ele>686.66284179688</ele>
        <time>2009-04-22T13:06:02Z</time>
      </trkpt>
      <trkpt lat="45.23421" lon="5.30603">
        <ele>690</ele>
        <time>2009-04-22T13:06:12Z</time>
      </trkpt>
      <trkpt lat="45.23459" lon="5.30582">
        <ele>690</ele>
        <time>2009-04-22T13:06:18Z</time>
      </trkpt>
      <trkpt lat="45.23485" lon="5.30578">
        <ele>689.91027832031</ele>
        <time>2009-04-22T13:06:21Z</time>
      </trkpt>
      <trkpt lat="45.23572" lon="5.30594">
        <ele>682.20684814453</ele>
        <time>2009-04-22T13:06:33Z</time>
      </trkpt>
      <trkpt lat="45.23592" lon="5.30589">
        <ele>680.68817138672</ele>
        <time>2009-04-22T13:06:35Z</time>
      </trkpt>
      <trkpt lat="45.23812" lon="5.30459">
        <ele>672.76049804688</ele>
        <time>2009-04-22T13:07:07Z</time>
      </trkpt>
      <trkpt lat="45.2383" lon="5.3044">
        <ele>672.72106933594</ele>
        <time>2009-04-22T13:07:10Z</time>
      </trkpt>
      <trkpt lat="45.23849" lon="5.30409">
        <ele>671.88073730469</ele>
        <time>2009-04-22T13:07:14Z</time>
      </trkpt>
      <trkpt lat="45.23858" lon="5.30369">
        <ele>670.53466796875</ele>
        <time>2009-04-22T13:07:18Z</time>
      </trkpt>
      <trkpt lat="45.23861" lon="5.30301">
        <ele>667.99353027344</ele>
        <time>2009-04-22T13:07:24Z</time>
      </trkpt>
      <trkpt lat="45.2387" lon="5.30256">
        <ele>668.87664794922</ele>
        <time>2009-04-22T13:07:29Z</time>
      </trkpt>
      <trkpt lat="45.24058" lon="5.29774">
        <ele>673.87664794922</ele>
        <time>2009-04-22T13:08:21Z</time>
      </trkpt>
      <trkpt lat="45.2407" lon="5.29742">
        <ele>673.36968994141</ele>
        <time>2009-04-22T13:08:24Z</time>
      </trkpt>
      <trkpt lat="45.24076" lon="5.29708">
        <ele>673</ele>
        <time>2009-04-22T13:08:27Z</time>
      </trkpt>
      <trkpt lat="45.2408" lon="5.29673">
        <ele>672.90447998047</ele>
        <time>2009-04-22T13:08:31Z</time>
      </trkpt>
      <trkpt lat="45.2409" lon="5.29405">
        <ele>669.67858886719</ele>
        <time>2009-04-22T13:08:56Z</time>
      </trkpt>
      <trkpt lat="45.24125" lon="5.28292">
        <ele>653.49670410156</ele>
        <time>2009-04-22T13:10:41Z</time>
      </trkpt>
      <trkpt lat="45.24137" lon="5.28068">
        <ele>648.38482666016</ele>
        <time>2009-04-22T13:11:02Z</time>
      </trkpt>
      <trkpt lat="45.24144" lon="5.28032">
        <ele>647.49133300781</ele>
        <time>2009-04-22T13:11:05Z</time>
      </trkpt>
      <trkpt lat="45.24153" lon="5.28008">
        <ele>647.66040039062</ele>
        <time>2009-04-22T13:11:08Z</time>
      </trkpt>
      <trkpt lat="45.24193" lon="5.27942">
        <ele>647.85278320312</ele>
        <time>2009-04-22T13:11:16Z</time>
      </trkpt>
      <trkpt lat="45.24559" lon="5.27405">
        <ele>639.67803955078</ele>
        <time>2009-04-22T13:12:26Z</time>
      </trkpt>
      <trkpt lat="45.24773" lon="5.2708">
        <ele>621.90087890625</ele>
        <time>2009-04-22T13:13:08Z</time>
      </trkpt>
      <trkpt lat="45.24954" lon="5.26828">
        <ele>620</ele>
        <time>2009-04-22T13:13:42Z</time>
      </trkpt>
      <trkpt lat="45.24971" lon="5.26786">
        <ele>620</ele>
        <time>2009-04-22T13:13:46Z</time>
      </trkpt>
      <trkpt lat="45.24987" lon="5.26624">
        <ele>620</ele>
        <time>2009-04-22T13:14:02Z</time>
      </trkpt>
      <trkpt lat="45.24997" lon="5.26419">
        <ele>620</ele>
        <time>2009-04-22T13:14:21Z</time>
      </trkpt>
      <trkpt lat="45.24997" lon="5.2624">
        <ele>620</ele>
        <time>2009-04-22T13:14:38Z</time>
      </trkpt>
      <trkpt lat="45.25007" lon="5.25941">
        <ele>617.21643066406</ele>
        <time>2009-04-22T13:15:06Z</time>
      </trkpt>
      <trkpt lat="45.25005" lon="5.25854">
        <ele>614.74456787109</ele>
        <time>2009-04-22T13:15:14Z</time>
      </trkpt>
      <trkpt lat="45.24998" lon="5.258">
        <ele>612.73095703125</ele>
        <time>2009-04-22T13:15:19Z</time>
      </trkpt>
      <trkpt lat="45.24979" lon="5.25751">
        <ele>610.28137207031</ele>
        <time>2009-04-22T13:15:24Z</time>
      </trkpt>
      <trkpt lat="45.2495" lon="5.25696">
        <ele>605.85961914062</ele>
        <time>2009-04-22T13:15:31Z</time>
      </trkpt>
      <trkpt lat="45.24937" lon="5.25658">
        <ele>602.80670166016</ele>
        <time>2009-04-22T13:15:35Z</time>
      </trkpt>
      <trkpt lat="45.24934" lon="5.2561">
        <ele>599.08166503906</ele>
        <time>2009-04-22T13:15:39Z</time>
      </trkpt>
      <trkpt lat="45.24933" lon="5.25563">
        <ele>596.99938964844</ele>
        <time>2009-04-22T13:15:44Z</time>
      </trkpt>
      <trkpt lat="45.24957" lon="5.25429">
        <ele>594.31298828125</ele>
        <time>2009-04-22T13:15:57Z</time>
      </trkpt>
      <trkpt lat="45.24958" lon="5.25404">
        <ele>592.7255859375</ele>
        <time>2009-04-22T13:15:59Z</time>
      </trkpt>
      <trkpt lat="45.24945" lon="5.25331">
        <ele>579.84289550781</ele>
        <time>2009-04-22T13:16:06Z</time>
      </trkpt>
      <trkpt lat="45.24945" lon="5.25289">
        <ele>574.33459472656</ele>
        <time>2009-04-22T13:16:10Z</time>
      </trkpt>
      <trkpt lat="45.24956" lon="5.25187">
        <ele>564.03546142578</ele>
        <time>2009-04-22T13:16:20Z</time>
      </trkpt>
      <trkpt lat="45.24965" lon="5.25157">
        <ele>561.82092285156</ele>
        <time>2009-04-22T13:16:23Z</time>
      </trkpt>
      <trkpt lat="45.25116" lon="5.25026">
        <ele>552.20220947266</ele>
        <time>2009-04-22T13:16:47Z</time>
      </trkpt>
      <trkpt lat="45.25181" lon="5.24987">
        <ele>552.39294433594</ele>
        <time>2009-04-22T13:16:56Z</time>
      </trkpt>
      <trkpt lat="45.25225" lon="5.24948">
        <ele>549.17272949219</ele>
        <time>2009-04-22T13:17:03Z</time>
      </trkpt>
      <trkpt lat="45.25285" lon="5.24918">
        <ele>552.23590087891</ele>
        <time>2009-04-22T13:17:11Z</time>
      </trkpt>
      <trkpt lat="45.25341" lon="5.24859">
        <ele>546.61059570312</ele>
        <time>2009-04-22T13:17:21Z</time>
      </trkpt>
      <trkpt lat="45.25416" lon="5.24814">
        <ele>542.38787841797</ele>
        <time>2009-04-22T13:17:32Z</time>
      </trkpt>
      <trkpt lat="45.25515" lon="5.24686">
        <ele>531.01049804688</ele>
        <time>2009-04-22T13:17:49Z</time>
      </trkpt>
      <trkpt lat="45.25677" lon="5.2446">
        <ele>519.05395507812</ele>
        <time>2009-04-22T13:18:20Z</time>
      </trkpt>
      <trkpt lat="45.25685" lon="5.24448">
        <ele>518.04974365234</ele>
        <time>2009-04-22T13:18:21Z</time>
      </trkpt>
      <trkpt lat="45.25687" lon="5.24437">
        <ele>517.19683837891</ele>
        <time>2009-04-22T13:18:22Z</time>
      </trkpt>
      <trkpt lat="45.25703" lon="5.24426">
        <ele>517.29028320312</ele>
        <time>2009-04-22T13:18:25Z</time>
      </trkpt>
      <trkpt lat="45.25701" lon="5.24403">
        <ele>515.37957763672</ele>
        <time>2009-04-22T13:18:27Z</time>
      </trkpt>
      <trkpt lat="45.25775" lon="5.24244">
        <ele>504.5696105957</ele>
        <time>2009-04-22T13:18:45Z</time>
      </trkpt>
      <trkpt lat="45.25831" lon="5.2415">
        <ele>499.36380004883</ele>
        <time>2009-04-22T13:18:56Z</time>
      </trkpt>
      <trkpt lat="45.25752" lon="5.23911">
        <ele>499</ele>
        <time>2009-04-22T13:19:21Z</time>
      </trkpt>
      <trkpt lat="45.25725" lon="5.23818">
        <ele>499</ele>
        <time>2009-04-22T13:19:31Z</time>
      </trkpt>
      <trkpt lat="45.25685" lon="5.23644">
        <ele>508.47253417969</ele>
        <time>2009-04-22T13:19:48Z</time>
      </trkpt>
      <trkpt lat="45.25648" lon="5.2353">
        <ele>517.67449951172</ele>
        <time>2009-04-22T13:20:00Z</time>
      </trkpt>
      <trkpt lat="45.25623" lon="5.23426">
        <ele>516.96923828125</ele>
        <time>2009-04-22T13:20:10Z</time>
      </trkpt>
      <trkpt lat="45.25601" lon="5.23294">
        <ele>507.28143310547</ele>
        <time>2009-04-22T13:20:23Z</time>
      </trkpt>
      <trkpt lat="45.25587" lon="5.23249">
        <ele>504.59997558594</ele>
        <time>2009-04-22T13:20:27Z</time>
      </trkpt>
      <trkpt lat="45.25577" lon="5.23235">
        <ele>505.54629516602</ele>
        <time>2009-04-22T13:20:29Z</time>
      </trkpt>
      <trkpt lat="45.2555" lon="5.23224">
        <ele>507.45901489258</ele>
        <time>2009-04-22T13:20:33Z</time>
      </trkpt>
      <trkpt lat="45.25435" lon="5.23243">
        <ele>521.32452392578</ele>
        <time>2009-04-22T13:20:48Z</time>
      </trkpt>
      <trkpt lat="45.25428" lon="5.23228">
        <ele>522.67266845703</ele>
        <time>2009-04-22T13:20:50Z</time>
      </trkpt>
      <trkpt lat="45.25437" lon="5.23184">
        <ele>519.21203613281</ele>
        <time>2009-04-22T13:20:54Z</time>
      </trkpt>
      <trkpt lat="45.25437" lon="5.23154">
        <ele>518.92901611328</ele>
        <time>2009-04-22T13:20:57Z</time>
      </trkpt>
      <trkpt lat="45.25424" lon="5.23138">
        <ele>520.28405761719</ele>
        <time>2009-04-22T13:20:59Z</time>
      </trkpt>
      <trkpt lat="45.25363" lon="5.2313">
        <ele>530.34594726562</ele>
        <time>2009-04-22T13:21:08Z</time>
      </trkpt>
      <trkpt lat="45.25356" lon="5.23122">
        <ele>532.3408203125</ele>
        <time>2009-04-22T13:21:09Z</time>
      </trkpt>
      <trkpt lat="45.2535" lon="5.23101">
        <ele>535.08740234375</ele>
        <time>2009-04-22T13:21:11Z</time>
      </trkpt>
      <trkpt lat="45.25353" lon="5.23061">
        <ele>537.47863769531</ele>
        <time>2009-04-22T13:21:15Z</time>
      </trkpt>
      <trkpt lat="45.25404" lon="5.22963">
        <ele>536.16717529297</ele>
        <time>2009-04-22T13:21:26Z</time>
      </trkpt>
      <trkpt lat="45.25414" lon="5.22918">
        <ele>536.50848388672</ele>
        <time>2009-04-22T13:21:31Z</time>
      </trkpt>
      <trkpt lat="45.25415" lon="5.22893">
        <ele>538.00567626953</ele>
        <time>2009-04-22T13:21:33Z</time>
      </trkpt>
      <trkpt lat="45.25407" lon="5.22866">
        <ele>540.55853271484</ele>
        <time>2009-04-22T13:21:36Z</time>
      </trkpt>
      <trkpt lat="45.25397" lon="5.22853">
        <ele>542.81243896484</ele>
        <time>2009-04-22T13:21:37Z</time>
      </trkpt>
      <trkpt lat="45.2536" lon="5.22827">
        <ele>546.41668701172</ele>
        <time>2009-04-22T13:21:43Z</time>
      </trkpt>
      <trkpt lat="45.25359" lon="5.22808">
        <ele>547.36999511719</ele>
        <time>2009-04-22T13:21:45Z</time>
      </trkpt>
      <trkpt lat="45.2537" lon="5.22772">
        <ele>547.88787841797</ele>
        <time>2009-04-22T13:21:48Z</time>
      </trkpt>
      <trkpt lat="45.25372" lon="5.22753">
        <ele>548.50238037109</ele>
        <time>2009-04-22T13:21:50Z</time>
      </trkpt>
      <trkpt lat="45.25369" lon="5.22715">
        <ele>549.98040771484</ele>
        <time>2009-04-22T13:21:54Z</time>
      </trkpt>
      <trkpt lat="45.25371" lon="5.227">
        <ele>550.43701171875</ele>
        <time>2009-04-22T13:21:55Z</time>
      </trkpt>
      <trkpt lat="45.25388" lon="5.22682">
        <ele>550.48168945312</ele>
        <time>2009-04-22T13:21:58Z</time>
      </trkpt>
      <trkpt lat="45.25425" lon="5.22664">
        <ele>545.99652099609</ele>
        <time>2009-04-22T13:22:03Z</time>
      </trkpt>
      <trkpt lat="45.25435" lon="5.22637">
        <ele>546.44641113281</ele>
        <time>2009-04-22T13:22:06Z</time>
      </trkpt>
      <trkpt lat="45.2543" lon="5.22591">
        <ele>549.16040039062</ele>
        <time>2009-04-22T13:22:11Z</time>
      </trkpt>
      <trkpt lat="45.25398" lon="5.22477">
        <ele>556.62084960938</ele>
        <time>2009-04-22T13:22:22Z</time>
      </trkpt>
      <trkpt lat="45.25392" lon="5.22434">
        <ele>558.80932617188</ele>
        <time>2009-04-22T13:22:26Z</time>
      </trkpt>
      <trkpt lat="45.25403" lon="5.22399">
        <ele>559.45349121094</ele>
        <time>2009-04-22T13:22:30Z</time>
      </trkpt>
      <trkpt lat="45.25486" lon="5.22249">
        <ele>569.58599853516</ele>
        <time>2009-04-22T13:22:48Z</time>
      </trkpt>
      <trkpt lat="45.25512" lon="5.2221">
        <ele>569.41473388672</ele>
        <time>2009-04-22T13:22:53Z</time>
      </trkpt>
      <trkpt lat="45.25531" lon="5.22161">
        <ele>569.44763183594</ele>
        <time>2009-04-22T13:22:58Z</time>
      </trkpt>
      <trkpt lat="45.25532" lon="5.22134">
        <ele>568.50018310547</ele>
        <time>2009-04-22T13:23:01Z</time>
      </trkpt>
      <trkpt lat="45.25526" lon="5.22062">
        <ele>567.49633789062</ele>
        <time>2009-04-22T13:23:07Z</time>
      </trkpt>
      <trkpt lat="45.25516" lon="5.22009">
        <ele>565.71752929688</ele>
        <time>2009-04-22T13:23:13Z</time>
      </trkpt>
      <trkpt lat="45.25504" lon="5.21982">
        <ele>565.92858886719</ele>
        <time>2009-04-22T13:23:16Z</time>
      </trkpt>
      <trkpt lat="45.2549" lon="5.21957">
        <ele>565.61157226562</ele>
        <time>2009-04-22T13:23:19Z</time>
      </trkpt>
      <trkpt lat="45.25453" lon="5.21915">
        <ele>565.21014404297</ele>
        <time>2009-04-22T13:23:25Z</time>
      </trkpt>
      <trkpt lat="45.25404" lon="5.21881">
        <ele>564.88940429688</ele>
        <time>2009-04-22T13:23:32Z</time>
      </trkpt>
      <trkpt lat="45.25344" lon="5.21859">
        <ele>565.45935058594</ele>
        <time>2009-04-22T13:23:40Z</time>
      </trkpt>
      <trkpt lat="45.25269" lon="5.2184">
        <ele>565.72003173828</ele>
        <time>2009-04-22T13:23:51Z</time>
      </trkpt>
      <trkpt lat="45.25202" lon="5.2183">
        <ele>565.36010742188</ele>
        <time>2009-04-22T13:24:00Z</time>
      </trkpt>
      <trkpt lat="45.25178" lon="5.21823">
        <ele>567.07922363281</ele>
        <time>2009-04-22T13:24:03Z</time>
      </trkpt>
      <trkpt lat="45.25161" lon="5.21812">
        <ele>568.48461914062</ele>
        <time>2009-04-22T13:24:05Z</time>
      </trkpt>
      <trkpt lat="45.24849" lon="5.21426">
        <ele>572.27093505859</ele>
        <time>2009-04-22T13:25:01Z</time>
      </trkpt>
      <trkpt lat="45.24797" lon="5.21322">
        <ele>571</ele>
        <time>2009-04-22T13:25:13Z</time>
      </trkpt>
      <trkpt lat="45.2469" lon="5.21287">
        <ele>569.00543212891</ele>
        <time>2009-04-22T13:25:27Z</time>
      </trkpt>
      <trkpt lat="45.24621" lon="5.21258">
        <ele>565.28314208984</ele>
        <time>2009-04-22T13:25:37Z</time>
      </trkpt>
      <trkpt lat="45.24473" lon="5.21255">
        <ele>560</ele>
        <time>2009-04-22T13:25:57Z</time>
      </trkpt>
      <trkpt lat="45.2441" lon="5.21243">
        <ele>557.25836181641</ele>
        <time>2009-04-22T13:26:05Z</time>
      </trkpt>
      <trkpt lat="45.2438" lon="5.21216">
        <ele>554.61334228516</ele>
        <time>2009-04-22T13:26:10Z</time>
      </trkpt>
      <trkpt lat="45.24312" lon="5.21125">
        <ele>547.45166015625</ele>
        <time>2009-04-22T13:26:22Z</time>
      </trkpt>
      <trkpt lat="45.2429" lon="5.21103">
        <ele>545.59411621094</ele>
        <time>2009-04-22T13:26:26Z</time>
      </trkpt>
      <trkpt lat="45.24241" lon="5.21066">
        <ele>541.09057617188</ele>
        <time>2009-04-22T13:26:33Z</time>
      </trkpt>
      <trkpt lat="45.24219" lon="5.21055">
        <ele>540</ele>
        <time>2009-04-22T13:26:36Z</time>
      </trkpt>
      <trkpt lat="45.24196" lon="5.21051">
        <ele>540</ele>
        <time>2009-04-22T13:26:39Z</time>
      </trkpt>
      <trkpt lat="45.24177" lon="5.21059">
        <ele>538.83306884766</ele>
        <time>2009-04-22T13:26:42Z</time>
      </trkpt>
      <trkpt lat="45.24151" lon="5.21101">
        <ele>539</ele>
        <time>2009-04-22T13:26:47Z</time>
      </trkpt>
      <trkpt lat="45.24143" lon="5.21107">
        <ele>539</ele>
        <time>2009-04-22T13:26:49Z</time>
      </trkpt>
      <trkpt lat="45.24124" lon="5.21108">
        <ele>539</ele>
        <time>2009-04-22T13:26:51Z</time>
      </trkpt>
      <trkpt lat="45.24114" lon="5.21101">
        <ele>539</ele>
        <time>2009-04-22T13:26:53Z</time>
      </trkpt>
      <trkpt lat="45.24106" lon="5.21066">
        <ele>538.30450439453</ele>
        <time>2009-04-22T13:26:56Z</time>
      </trkpt>
      <trkpt lat="45.24109" lon="5.2098">
        <ele>537</ele>
        <time>2009-04-22T13:27:04Z</time>
      </trkpt>
      <trkpt lat="45.24083" lon="5.20884">
        <ele>535.01147460938</ele>
        <time>2009-04-22T13:27:14Z</time>
      </trkpt>
      <trkpt lat="45.24081" lon="5.20866">
        <ele>535.01458740234</ele>
        <time>2009-04-22T13:27:15Z</time>
      </trkpt>
      <trkpt lat="45.24088" lon="5.20792">
        <ele>534.08435058594</ele>
        <time>2009-04-22T13:27:22Z</time>
      </trkpt>
      <trkpt lat="45.24085" lon="5.20764">
        <ele>533.53173828125</ele>
        <time>2009-04-22T13:27:25Z</time>
      </trkpt>
      <trkpt lat="45.24023" lon="5.20693">
        <ele>538.45849609375</ele>
        <time>2009-04-22T13:27:36Z</time>
      </trkpt>
      <trkpt lat="45.23997" lon="5.20674">
        <ele>541.30187988281</ele>
        <time>2009-04-22T13:27:40Z</time>
      </trkpt>
      <trkpt lat="45.23955" lon="5.20669">
        <ele>554.99890136719</ele>
        <time>2009-04-22T13:27:45Z</time>
      </trkpt>
      <trkpt lat="45.2389" lon="5.20688">
        <ele>563.85107421875</ele>
        <time>2009-04-22T13:27:54Z</time>
      </trkpt>
      <trkpt lat="45.23747" lon="5.207">
        <ele>568.86138916016</ele>
        <time>2009-04-22T13:28:13Z</time>
      </trkpt>
      <trkpt lat="45.23725" lon="5.20696">
        <ele>566.37054443359</ele>
        <time>2009-04-22T13:28:16Z</time>
      </trkpt>
      <trkpt lat="45.23716" lon="5.20676">
        <ele>564.13531494141</ele>
        <time>2009-04-22T13:28:18Z</time>
      </trkpt>
      <trkpt lat="45.23707" lon="5.20585">
        <ele>558.32116699219</ele>
        <time>2009-04-22T13:28:27Z</time>
      </trkpt>
      <trkpt lat="45.2367" lon="5.20512">
        <ele>544.65802001953</ele>
        <time>2009-04-22T13:28:36Z</time>
      </trkpt>
      <trkpt lat="45.23663" lon="5.20482">
        <ele>542.08483886719</ele>
        <time>2009-04-22T13:28:39Z</time>
      </trkpt>
      <trkpt lat="45.23664" lon="5.20454">
        <ele>541.21875</ele>
        <time>2009-04-22T13:28:41Z</time>
      </trkpt>
      <trkpt lat="45.23703" lon="5.2039">
        <ele>546.54382324219</ele>
        <time>2009-04-22T13:28:49Z</time>
      </trkpt>
      <trkpt lat="45.23712" lon="5.20368">
        <ele>548.34973144531</ele>
        <time>2009-04-22T13:28:52Z</time>
      </trkpt>
      <trkpt lat="45.23718" lon="5.20337">
        <ele>548.01416015625</ele>
        <time>2009-04-22T13:28:55Z</time>
      </trkpt>
      <trkpt lat="45.2372" lon="5.20254">
        <ele>548.06860351562</ele>
        <time>2009-04-22T13:29:02Z</time>
      </trkpt>
      <trkpt lat="45.23703" lon="5.20184">
        <ele>543.45733642578</ele>
        <time>2009-04-22T13:29:09Z</time>
      </trkpt>
      <trkpt lat="45.23616" lon="5.19998">
        <ele>538.35400390625</ele>
        <time>2009-04-22T13:29:30Z</time>
      </trkpt>
      <trkpt lat="45.23615" lon="5.19973">
        <ele>538.27160644531</ele>
        <time>2009-04-22T13:29:33Z</time>
      </trkpt>
      <trkpt lat="45.2364" lon="5.19861">
        <ele>541.13092041016</ele>
        <time>2009-04-22T13:29:44Z</time>
      </trkpt>
      <trkpt lat="45.23649" lon="5.19755">
        <ele>543.07409667969</ele>
        <time>2009-04-22T13:29:54Z</time>
      </trkpt>
      <trkpt lat="45.23636" lon="5.19586">
        <ele>539.564453125</ele>
        <time>2009-04-22T13:30:10Z</time>
      </trkpt>
      <trkpt lat="45.23616" lon="5.19538">
        <ele>536.7080078125</ele>
        <time>2009-04-22T13:30:15Z</time>
      </trkpt>
      <trkpt lat="45.23598" lon="5.19431">
        <ele>532.96215820312</ele>
        <time>2009-04-22T13:30:25Z</time>
      </trkpt>
      <trkpt lat="45.23585" lon="5.19401">
        <ele>531.58203125</ele>
        <time>2009-04-22T13:30:29Z</time>
      </trkpt>
      <trkpt lat="45.23481" lon="5.19275">
        <ele>520</ele>
        <time>2009-04-22T13:30:47Z</time>
      </trkpt>
      <trkpt lat="45.23442" lon="5.19236">
        <ele>519.41052246094</ele>
        <time>2009-04-22T13:30:53Z</time>
      </trkpt>
      <trkpt lat="45.23397" lon="5.19201">
        <ele>516.04931640625</ele>
        <time>2009-04-22T13:31:00Z</time>
      </trkpt>
      <trkpt lat="45.2334" lon="5.19169">
        <ele>510.55264282227</ele>
        <time>2009-04-22T13:31:08Z</time>
      </trkpt>
      <trkpt lat="45.23195" lon="5.19117">
        <ele>500</ele>
        <time>2009-04-22T13:31:28Z</time>
      </trkpt>
      <trkpt lat="45.23165" lon="5.19113">
        <ele>500</ele>
        <time>2009-04-22T13:31:32Z</time>
      </trkpt>
      <trkpt lat="45.22925" lon="5.19155">
        <ele>500</ele>
        <time>2009-04-22T13:32:04Z</time>
      </trkpt>
      <trkpt lat="45.22848" lon="5.19174">
        <ele>500</ele>
        <time>2009-04-22T13:32:15Z</time>
      </trkpt>
      <trkpt lat="45.22796" lon="5.19176">
        <ele>500</ele>
        <time>2009-04-22T13:32:22Z</time>
      </trkpt>
      <trkpt lat="45.22771" lon="5.19163">
        <ele>500</ele>
        <time>2009-04-22T13:32:25Z</time>
      </trkpt>
      <trkpt lat="45.22758" lon="5.1915">
        <ele>500</ele>
        <time>2009-04-22T13:32:27Z</time>
      </trkpt>
      <trkpt lat="45.22683" lon="5.19036">
        <ele>500</ele>
        <time>2009-04-22T13:32:42Z</time>
      </trkpt>
      <trkpt lat="45.22416" lon="5.186">
        <ele>480</ele>
        <time>2009-04-22T13:33:36Z</time>
      </trkpt>
      <trkpt lat="45.22406" lon="5.18569">
        <ele>480</ele>
        <time>2009-04-22T13:33:40Z</time>
      </trkpt>
      <trkpt lat="45.22402" lon="5.18525">
        <ele>480</ele>
        <time>2009-04-22T13:33:44Z</time>
      </trkpt>
      <trkpt lat="45.22341" lon="5.18247">
        <ele>479.28161621094</ele>
        <time>2009-04-22T13:34:11Z</time>
      </trkpt>
      <trkpt lat="45.22323" lon="5.18135">
        <ele>476.86730957031</ele>
        <time>2009-04-22T13:34:22Z</time>
      </trkpt>
      <trkpt lat="45.22287" lon="5.17771">
        <ele>468.82629394531</ele>
        <time>2009-04-22T13:34:57Z</time>
      </trkpt>
      <trkpt lat="45.22213" lon="5.16901">
        <ele>462.08673095703</ele>
        <time>2009-04-22T13:36:19Z</time>
      </trkpt>
      <trkpt lat="45.22199" lon="5.16829">
        <ele>461.13943481445</ele>
        <time>2009-04-22T13:36:26Z</time>
      </trkpt>
      <trkpt lat="45.22036" lon="5.16153">
        <ele>452.90563964844</ele>
        <time>2009-04-22T13:37:33Z</time>
      </trkpt>
      <trkpt lat="45.21961" lon="5.15822">
        <ele>439.35961914062</ele>
        <time>2009-04-22T13:38:06Z</time>
      </trkpt>
      <trkpt lat="45.21953" lon="5.1577">
        <ele>438.50756835938</ele>
        <time>2009-04-22T13:38:11Z</time>
      </trkpt>
      <trkpt lat="45.21927" lon="5.15495">
        <ele>430.30908203125</ele>
        <time>2009-04-22T13:38:37Z</time>
      </trkpt>
      <trkpt lat="45.21899" lon="5.15248">
        <ele>422.9736328125</ele>
        <time>2009-04-22T13:39:00Z</time>
      </trkpt>
      <trkpt lat="45.21817" lon="5.14889">
        <ele>413.53759765625</ele>
        <time>2009-04-22T13:39:36Z</time>
      </trkpt>
      <trkpt lat="45.21793" lon="5.14766">
        <ele>407</ele>
        <time>2009-04-22T13:39:48Z</time>
      </trkpt>
      <trkpt lat="45.2179" lon="5.14693">
        <ele>405.94879150391</ele>
        <time>2009-04-22T13:39:55Z</time>
      </trkpt>
      <trkpt lat="45.21805" lon="5.14624">
        <ele>404.01248168945</ele>
        <time>2009-04-22T13:40:01Z</time>
      </trkpt>
      <trkpt lat="45.21799" lon="5.14381">
        <ele>399.93368530273</ele>
        <time>2009-04-22T13:40:24Z</time>
      </trkpt>
      <trkpt lat="45.21865" lon="5.14169">
        <ele>398.05975341797</ele>
        <time>2009-04-22T13:40:46Z</time>
      </trkpt>
      <trkpt lat="45.21879" lon="5.14019">
        <ele>405.61663818359</ele>
        <time>2009-04-22T13:41:00Z</time>
      </trkpt>
      <trkpt lat="45.21889" lon="5.14014">
        <ele>407.52416992188</ele>
        <time>2009-04-22T13:41:02Z</time>
      </trkpt>
      <trkpt lat="45.21889" lon="5.14">
        <ele>408.0339050293</ele>
        <time>2009-04-22T13:41:03Z</time>
      </trkpt>
      <trkpt lat="45.21879" lon="5.13994">
        <ele>407.19964599609</ele>
        <time>2009-04-22T13:41:04Z</time>
      </trkpt>
      <trkpt lat="45.21872" lon="5.14001">
        <ele>405.50329589844</ele>
        <time>2009-04-22T13:41:06Z</time>
      </trkpt>
      <trkpt lat="45.2185" lon="5.13981">
        <ele>405.23834228516</ele>
        <time>2009-04-22T13:41:09Z</time>
      </trkpt>
      <trkpt lat="45.21385" lon="5.13232">
        <ele>396.50146484375</ele>
        <time>2009-04-22T13:42:43Z</time>
      </trkpt>
      <trkpt lat="45.2136" lon="5.13203">
        <ele>396.61309814453</ele>
        <time>2009-04-22T13:42:47Z</time>
      </trkpt>
      <trkpt lat="45.21117" lon="5.13013">
        <ele>388.37744140625</ele>
        <time>2009-04-22T13:43:24Z</time>
      </trkpt>
      <trkpt lat="45.21068" lon="5.12962">
        <ele>388.45556640625</ele>
        <time>2009-04-22T13:43:32Z</time>
      </trkpt>
      <trkpt lat="45.21012" lon="5.12891">
        <ele>388.15600585938</ele>
        <time>2009-04-22T13:43:42Z</time>
      </trkpt>
      <trkpt lat="45.20873" lon="5.12758">
        <ele>385.1350402832</ele>
        <time>2009-04-22T13:44:05Z</time>
      </trkpt>
      <trkpt lat="45.20526" lon="5.12523">
        <ele>379.11303710938</ele>
        <time>2009-04-22T13:44:56Z</time>
      </trkpt>
      <trkpt lat="45.20275" lon="5.12292">
        <ele>378.24713134766</ele>
        <time>2009-04-22T13:45:36Z</time>
      </trkpt>
      <trkpt lat="45.201" lon="5.12159">
        <ele>368.24331665039</ele>
        <time>2009-04-22T13:46:02Z</time>
      </trkpt>
      <trkpt lat="45.19991" lon="5.12065">
        <ele>365.66766357422</ele>
        <time>2009-04-22T13:46:20Z</time>
      </trkpt>
      <trkpt lat="45.19677" lon="5.11809">
        <ele>361.31314086914</ele>
        <time>2009-04-22T13:47:08Z</time>
      </trkpt>
      <trkpt lat="45.19522" lon="5.11688">
        <ele>362.0276184082</ele>
        <time>2009-04-22T13:47:31Z</time>
      </trkpt>
      <trkpt lat="45.19511" lon="5.1167">
        <ele>362.27655029297</ele>
        <time>2009-04-22T13:47:34Z</time>
      </trkpt>
      <trkpt lat="45.19494" lon="5.11624">
        <ele>362.09426879883</ele>
        <time>2009-04-22T13:47:39Z</time>
      </trkpt>
      <trkpt lat="45.19442" lon="5.11432">
        <ele>359.82299804688</ele>
        <time>2009-04-22T13:47:58Z</time>
      </trkpt>
      <trkpt lat="45.19408" lon="5.11328">
        <ele>357.94973754883</ele>
        <time>2009-04-22T13:48:09Z</time>
      </trkpt>
      <trkpt lat="45.19057" lon="5.10068">
        <ele>337.71743774414</ele>
        <time>2009-04-22T13:50:16Z</time>
      </trkpt>
      <trkpt lat="45.18976" lon="5.09784">
        <ele>332.48315429688</ele>
        <time>2009-04-22T13:50:45Z</time>
      </trkpt>
      <trkpt lat="45.18651" lon="5.08798">
        <ele>319.42944335938</ele>
        <time>2009-04-22T13:52:27Z</time>
      </trkpt>
      <trkpt lat="45.18625" lon="5.08722">
        <ele>318.49923706055</ele>
        <time>2009-04-22T13:52:35Z</time>
      </trkpt>
      <trkpt lat="45.18608" lon="5.08684">
        <ele>318.0495300293</ele>
        <time>2009-04-22T13:52:39Z</time>
      </trkpt>
      <trkpt lat="45.18021" lon="5.07858">
        <ele>303.59780883789</ele>
        <time>2009-04-22T13:54:30Z</time>
      </trkpt>
      <trkpt lat="45.17798" lon="5.07521">
        <ele>299.72265625</ele>
        <time>2009-04-22T13:55:13Z</time>
      </trkpt>
      <trkpt lat="45.17493" lon="5.071">
        <ele>313.84875488281</ele>
        <time>2009-04-22T13:56:10Z</time>
      </trkpt>
      <trkpt lat="45.17449" lon="5.07051">
        <ele>316.17608642578</ele>
        <time>2009-04-22T13:56:17Z</time>
      </trkpt>
      <trkpt lat="45.17419" lon="5.07027">
        <ele>312.60098266602</ele>
        <time>2009-04-22T13:56:22Z</time>
      </trkpt>
      <trkpt lat="45.17323" lon="5.07">
        <ele>311.87246704102</ele>
        <time>2009-04-22T13:56:35Z</time>
      </trkpt>
      <trkpt lat="45.17293" lon="5.06983">
        <ele>311.38394165039</ele>
        <time>2009-04-22T13:56:39Z</time>
      </trkpt>
      <trkpt lat="45.17246" lon="5.06947">
        <ele>309.63302612305</ele>
        <time>2009-04-22T13:56:47Z</time>
      </trkpt>
      <trkpt lat="45.17212" lon="5.06944">
        <ele>308.96875</ele>
        <time>2009-04-22T13:56:51Z</time>
      </trkpt>
      <trkpt lat="45.17189" lon="5.06933">
        <ele>308.55114746094</ele>
        <time>2009-04-22T13:56:54Z</time>
      </trkpt>
      <trkpt lat="45.17009" lon="5.06769">
        <ele>313.12567138672</ele>
        <time>2009-04-22T13:57:23Z</time>
      </trkpt>
      <trkpt lat="45.1678" lon="5.06525">
        <ele>298.36706542969</ele>
        <time>2009-04-22T13:58:01Z</time>
      </trkpt>
      <trkpt lat="45.16766" lon="5.06505">
        <ele>298.36450195312</ele>
        <time>2009-04-22T13:58:04Z</time>
      </trkpt>
      <trkpt lat="45.16755" lon="5.06476">
        <ele>299.10446166992</ele>
        <time>2009-04-22T13:58:07Z</time>
      </trkpt>
      <trkpt lat="45.16729" lon="5.06375">
        <ele>299.85195922852</ele>
        <time>2009-04-22T13:58:17Z</time>
      </trkpt>
      <trkpt lat="45.16648" lon="5.0599">
        <ele>299.69235229492</ele>
        <time>2009-04-22T13:58:55Z</time>
      </trkpt>
      <trkpt lat="45.16627" lon="5.0593">
        <ele>301.09655761719</ele>
        <time>2009-04-22T13:59:01Z</time>
      </trkpt>
      <trkpt lat="45.16528" lon="5.05675">
        <ele>294.70993041992</ele>
        <time>2009-04-22T13:59:28Z</time>
      </trkpt>
      <trkpt lat="45.16252" lon="5.05163">
        <ele>281.14367675781</ele>
        <time>2009-04-22T14:00:29Z</time>
      </trkpt>
      <trkpt lat="45.16221" lon="5.05082">
        <ele>279.90472412109</ele>
        <time>2009-04-22T14:00:38Z</time>
      </trkpt>
      <trkpt lat="45.16168" lon="5.04882">
        <ele>275.76245117188</ele>
        <time>2009-04-22T14:00:58Z</time>
      </trkpt>
      <trkpt lat="45.16161" lon="5.04852">
        <ele>275</ele>
        <time>2009-04-22T14:01:01Z</time>
      </trkpt>
      <trkpt lat="45.16159" lon="5.04824">
        <ele>274.90814208984</ele>
        <time>2009-04-22T14:01:03Z</time>
      </trkpt>
      <trkpt lat="45.16165" lon="5.04585">
        <ele>272</ele>
        <time>2009-04-22T14:01:26Z</time>
      </trkpt>
      <trkpt lat="45.16169" lon="5.04542">
        <ele>272.04260253906</ele>
        <time>2009-04-22T14:01:30Z</time>
      </trkpt>
      <trkpt lat="45.16177" lon="5.04498">
        <ele>271.37152099609</ele>
        <time>2009-04-22T14:01:34Z</time>
      </trkpt>
      <trkpt lat="45.16223" lon="5.04323">
        <ele>271.033203125</ele>
        <time>2009-04-22T14:01:52Z</time>
      </trkpt>
      <trkpt lat="45.16229" lon="5.04281">
        <ele>271.23919677734</ele>
        <time>2009-04-22T14:01:56Z</time>
      </trkpt>
      <trkpt lat="45.16186" lon="5.03987">
        <ele>267.70111083984</ele>
        <time>2009-04-22T14:02:24Z</time>
      </trkpt>
      <trkpt lat="45.16183" lon="5.03975">
        <ele>267.59124755859</ele>
        <time>2009-04-22T14:02:25Z</time>
      </trkpt>
      <trkpt lat="45.16167" lon="5.03949">
        <ele>267.01446533203</ele>
        <time>2009-04-22T14:02:29Z</time>
      </trkpt>
      <trkpt lat="45.16183" lon="5.03915">
        <ele>266.59124755859</ele>
        <time>2009-04-22T14:02:33Z</time>
      </trkpt>
      <trkpt lat="45.16193" lon="5.03883">
        <ele>266.94830322266</ele>
        <time>2009-04-22T14:02:36Z</time>
      </trkpt>
      <trkpt lat="45.16187" lon="5.03873">
        <ele>266.72857666016</ele>
        <time>2009-04-22T14:02:37Z</time>
      </trkpt>
      <trkpt lat="45.16192" lon="5.03663">
        <ele>268.93344116211</ele>
        <time>2009-04-22T14:02:57Z</time>
      </trkpt>
      <trkpt lat="45.16192" lon="5.03543">
        <ele>272.26635742188</ele>
        <time>2009-04-22T14:03:08Z</time>
      </trkpt>
      <trkpt lat="45.16188" lon="5.03507">
        <ele>274.03594970703</ele>
        <time>2009-04-22T14:03:12Z</time>
      </trkpt>
      <trkpt lat="45.16178" lon="5.03449">
        <ele>276.49664306641</ele>
        <time>2009-04-22T14:03:17Z</time>
      </trkpt>
      <trkpt lat="45.16161" lon="5.03394">
        <ele>278.40606689453</ele>
        <time>2009-04-22T14:03:23Z</time>
      </trkpt>
      <trkpt lat="45.16124" lon="5.03315">
        <ele>279.54888916016</ele>
        <time>2009-04-22T14:03:32Z</time>
      </trkpt>
      <trkpt lat="45.16004" lon="5.03124">
        <ele>260.23120117188</ele>
        <time>2009-04-22T14:03:56Z</time>
      </trkpt>
      <trkpt lat="45.15863" lon="5.02917">
        <ele>261.26351928711</ele>
        <time>2009-04-22T14:04:23Z</time>
      </trkpt>
      <trkpt lat="45.15636" lon="5.02696">
        <ele>259.89825439453</ele>
        <time>2009-04-22T14:05:00Z</time>
      </trkpt>
      <trkpt lat="45.15406" lon="5.02402">
        <ele>258.81909179688</ele>
        <time>2009-04-22T14:05:41Z</time>
      </trkpt>
      <trkpt lat="45.15341" lon="5.02329">
        <ele>257.28271484375</ele>
        <time>2009-04-22T14:05:52Z</time>
      </trkpt>
      <trkpt lat="45.15259" lon="5.02183">
        <ele>255.66027832031</ele>
        <time>2009-04-22T14:06:10Z</time>
      </trkpt>
      <trkpt lat="45.15189" lon="5.02071">
        <ele>257.24731445312</ele>
        <time>2009-04-22T14:06:24Z</time>
      </trkpt>
      <trkpt lat="45.15193" lon="5.02066">
        <ele>257.57861328125</ele>
        <time>2009-04-22T14:06:24Z</time>
      </trkpt>
      <trkpt lat="45.15193" lon="5.02057">
        <ele>257.90307617188</ele>
        <time>2009-04-22T14:06:25Z</time>
      </trkpt>
      <trkpt lat="45.15185" lon="5.02051">
        <ele>257.82925415039</ele>
        <time>2009-04-22T14:06:26Z</time>
      </trkpt>
      <trkpt lat="45.15177" lon="5.02053">
        <ele>257.46875</ele>
        <time>2009-04-22T14:06:27Z</time>
      </trkpt>
      <trkpt lat="45.14908" lon="5.01677">
        <ele>259.56402587891</ele>
        <time>2009-04-22T14:07:18Z</time>
      </trkpt>
      <trkpt lat="45.14853" lon="5.01608">
        <ele>259.18014526367</ele>
        <time>2009-04-22T14:07:28Z</time>
      </trkpt>
      <trkpt lat="45.14853" lon="5.01607">
        <ele>259.2014465332</ele>
        <time>2009-04-22T14:07:28Z</time>
      </trkpt>
      <trkpt lat="45.14829" lon="5.01581">
        <ele>258.60220336914</ele>
        <time>2009-04-22T14:07:32Z</time>
      </trkpt>
      <trkpt lat="45.14834" lon="5.01453">
        <ele>250.99774169922</ele>
        <time>2009-04-22T14:07:44Z</time>
      </trkpt>
      <trkpt lat="45.1484" lon="5.01428">
        <ele>250.21728515625</ele>
        <time>2009-04-22T14:07:46Z</time>
      </trkpt>
      <trkpt lat="45.14854" lon="5.01416">
        <ele>251.18453979492</ele>
        <time>2009-04-22T14:07:49Z</time>
      </trkpt>
      <trkpt lat="45.14903" lon="5.01394">
        <ele>256.55767822266</ele>
        <time>2009-04-22T14:07:55Z</time>
      </trkpt>
      <trkpt lat="45.14923" lon="5.01375">
        <ele>255.96371459961</ele>
        <time>2009-04-22T14:07:59Z</time>
      </trkpt>
      <trkpt lat="45.14963" lon="5.01329">
        <ele>254.87802124023</ele>
        <time>2009-04-22T14:08:05Z</time>
      </trkpt>
      <trkpt lat="45.15021" lon="5.01246">
        <ele>259.07745361328</ele>
        <time>2009-04-22T14:08:16Z</time>
      </trkpt>
      <trkpt lat="45.15056" lon="5.01205">
        <ele>260</ele>
        <time>2009-04-22T14:08:23Z</time>
      </trkpt>
      <trkpt lat="45.15081" lon="5.0119">
        <ele>260</ele>
        <time>2009-04-22T14:08:26Z</time>
      </trkpt>
      <trkpt lat="45.15177" lon="5.01155">
        <ele>260</ele>
        <time>2009-04-22T14:08:39Z</time>
      </trkpt>
      <trkpt lat="45.15209" lon="5.01151">
        <ele>260</ele>
        <time>2009-04-22T14:08:44Z</time>
      </trkpt>
      <trkpt lat="45.15351" lon="5.01184">
        <ele>260</ele>
        <time>2009-04-22T14:09:03Z</time>
      </trkpt>
      <trkpt lat="45.15828" lon="5.01187">
        <ele>260</ele>
        <time>2009-04-22T14:10:07Z</time>
      </trkpt>
      <trkpt lat="45.16254" lon="5.01053">
        <ele>264.62072753906</ele>
        <time>2009-04-22T14:11:05Z</time>
      </trkpt>
      <trkpt lat="45.16517" lon="5.00967">
        <ele>275.681640625</ele>
        <time>2009-04-22T14:11:41Z</time>
      </trkpt>
      <trkpt lat="45.16696" lon="5.00902">
        <ele>280</ele>
        <time>2009-04-22T14:12:05Z</time>
      </trkpt>
      <trkpt lat="45.16775" lon="5.0088">
        <ele>280</ele>
        <time>2009-04-22T14:12:16Z</time>
      </trkpt>
      <trkpt lat="45.16816" lon="5.0079">
        <ele>280</ele>
        <time>2009-04-22T14:12:26Z</time>
      </trkpt>
      <trkpt lat="45.16838" lon="5.00757">
        <ele>280</ele>
        <time>2009-04-22T14:12:30Z</time>
      </trkpt>
      <trkpt lat="45.16914" lon="5.00669">
        <ele>280</ele>
        <time>2009-04-22T14:12:44Z</time>
      </trkpt>
      <trkpt lat="45.1697" lon="5.00635">
        <ele>280</ele>
        <time>2009-04-22T14:12:52Z</time>
      </trkpt>
      <trkpt lat="45.17068" lon="5.00589">
        <ele>280</ele>
        <time>2009-04-22T14:13:05Z</time>
      </trkpt>
      <trkpt lat="45.17178" lon="5.00477">
        <ele>282.35238647461</ele>
        <time>2009-04-22T14:13:24Z</time>
      </trkpt>
      <trkpt lat="45.17207" lon="5.00428">
        <ele>283.91687011719</ele>
        <time>2009-04-22T14:13:30Z</time>
      </trkpt>
      <trkpt lat="45.17235" lon="5.00369">
        <ele>287.09918212891</ele>
        <time>2009-04-22T14:13:36Z</time>
      </trkpt>
      <trkpt lat="45.17301" lon="5.00298">
        <ele>290.79840087891</ele>
        <time>2009-04-22T14:13:47Z</time>
      </trkpt>
      <trkpt lat="45.17342" lon="5.00277">
        <ele>300.94610595703</ele>
        <time>2009-04-22T14:13:53Z</time>
      </trkpt>
      <trkpt lat="45.17468" lon="5.00255">
        <ele>310.04827880859</ele>
        <time>2009-04-22T14:14:10Z</time>
      </trkpt>
      <trkpt lat="45.17538" lon="5.00255">
        <ele>319.38018798828</ele>
        <time>2009-04-22T14:14:19Z</time>
      </trkpt>
      <trkpt lat="45.17598" lon="5.00252">
        <ele>324.47329711914</ele>
        <time>2009-04-22T14:14:27Z</time>
      </trkpt>
      <trkpt lat="45.17621" lon="5.00235">
        <ele>327.24169921875</ele>
        <time>2009-04-22T14:14:31Z</time>
      </trkpt>
      <trkpt lat="45.17644" lon="5.00188">
        <ele>330.10211181641</ele>
        <time>2009-04-22T14:14:36Z</time>
      </trkpt>
      <trkpt lat="45.17671" lon="5.00113">
        <ele>329.89099121094</ele>
        <time>2009-04-22T14:14:44Z</time>
      </trkpt>
      <trkpt lat="45.177" lon="5.00085">
        <ele>340.19329833984</ele>
        <time>2009-04-22T14:14:49Z</time>
      </trkpt>
      <trkpt lat="45.17709" lon="5.00081">
        <ele>340.24411010742</ele>
        <time>2009-04-22T14:14:50Z</time>
      </trkpt>
      <trkpt lat="45.17785" lon="5.00087">
        <ele>341</ele>
        <time>2009-04-22T14:15:00Z</time>
      </trkpt>
      <trkpt lat="45.17804" lon="5.00084">
        <ele>341</ele>
        <time>2009-04-22T14:15:03Z</time>
      </trkpt>
      <trkpt lat="45.17816" lon="5.00076">
        <ele>341.26373291016</ele>
        <time>2009-04-22T14:15:05Z</time>
      </trkpt>
      <trkpt lat="45.17835" lon="5.00052">
        <ele>342</ele>
        <time>2009-04-22T14:15:08Z</time>
      </trkpt>
      <trkpt lat="45.1787" lon="4.99994">
        <ele>340.27456665039</ele>
        <time>2009-04-22T14:15:15Z</time>
      </trkpt>
      <trkpt lat="45.17897" lon="4.9994">
        <ele>345.27163696289</ele>
        <time>2009-04-22T14:15:21Z</time>
      </trkpt>
      <trkpt lat="45.17927" lon="4.99901">
        <ele>349.43698120117</ele>
        <time>2009-04-22T14:15:27Z</time>
      </trkpt>
      <trkpt lat="45.17962" lon="4.99868">
        <ele>352.63064575195</ele>
        <time>2009-04-22T14:15:32Z</time>
      </trkpt>
      <trkpt lat="45.17985" lon="4.99818">
        <ele>356.58578491211</ele>
        <time>2009-04-22T14:15:38Z</time>
      </trkpt>
      <trkpt lat="45.17991" lon="4.99795">
        <ele>358.68341064453</ele>
        <time>2009-04-22T14:15:40Z</time>
      </trkpt>
      <trkpt lat="45.17993" lon="4.99763">
        <ele>360.81958007812</ele>
        <time>2009-04-22T14:15:43Z</time>
      </trkpt>
      <trkpt lat="45.17986" lon="4.99708">
        <ele>363.90612792969</ele>
        <time>2009-04-22T14:15:49Z</time>
      </trkpt>
      <trkpt lat="45.17986" lon="4.99679">
        <ele>366.63052368164</ele>
        <time>2009-04-22T14:15:51Z</time>
      </trkpt>
      <trkpt lat="45.18012" lon="4.99561">
        <ele>376.14205932617</ele>
        <time>2009-04-22T14:16:03Z</time>
      </trkpt>
      <trkpt lat="45.17981" lon="4.99521">
        <ele>377.68014526367</ele>
        <time>2009-04-22T14:16:09Z</time>
      </trkpt>
      <trkpt lat="45.17958" lon="4.99474">
        <ele>378.47775268555</ele>
        <time>2009-04-22T14:16:14Z</time>
      </trkpt>
      <trkpt lat="45.17943" lon="4.99365">
        <ele>386.64639282227</ele>
        <time>2009-04-22T14:16:24Z</time>
      </trkpt>
      <trkpt lat="45.17867" lon="4.9934">
        <ele>383.31362915039</ele>
        <time>2009-04-22T14:16:35Z</time>
      </trkpt>
      <trkpt lat="45.17795" lon="4.99305">
        <ele>382.96389770508</ele>
        <time>2009-04-22T14:16:45Z</time>
      </trkpt>
      <trkpt lat="45.17717" lon="4.99214">
        <ele>388.87249755859</ele>
        <time>2009-04-22T14:16:58Z</time>
      </trkpt>
      <trkpt lat="45.17693" lon="4.99205">
        <ele>390.03625488281</ele>
        <time>2009-04-22T14:17:02Z</time>
      </trkpt>
      <trkpt lat="45.17664" lon="4.99205">
        <ele>389.26284790039</ele>
        <time>2009-04-22T14:17:06Z</time>
      </trkpt>
      <trkpt lat="45.1759" lon="4.99226">
        <ele>383.3782043457</ele>
        <time>2009-04-22T14:17:16Z</time>
      </trkpt>
      <trkpt lat="45.17569" lon="4.99227">
        <ele>382.74783325195</ele>
        <time>2009-04-22T14:17:19Z</time>
      </trkpt>
      <trkpt lat="45.17492" lon="4.99218">
        <ele>382.22137451172</ele>
        <time>2009-04-22T14:17:29Z</time>
      </trkpt>
      <trkpt lat="45.17379" lon="4.99215">
        <ele>377.75900268555</ele>
        <time>2009-04-22T14:17:44Z</time>
      </trkpt>
      <trkpt lat="45.1737" lon="4.99212">
        <ele>377.39782714844</ele>
        <time>2009-04-22T14:17:45Z</time>
      </trkpt>
      <trkpt lat="45.17278" lon="4.99138">
        <ele>377.62167358398</ele>
        <time>2009-04-22T14:17:59Z</time>
      </trkpt>
      <trkpt lat="45.17237" lon="4.99122">
        <ele>378.52670288086</ele>
        <time>2009-04-22T14:18:05Z</time>
      </trkpt>
      <trkpt lat="45.17183" lon="4.99125">
        <ele>381.12173461914</ele>
        <time>2009-04-22T14:18:12Z</time>
      </trkpt>
      <trkpt lat="45.17138" lon="4.99154">
        <ele>379.34591674805</ele>
        <time>2009-04-22T14:18:19Z</time>
      </trkpt>
      <trkpt lat="45.17138" lon="4.99153">
        <ele>379.4494934082</ele>
        <time>2009-04-22T14:18:19Z</time>
      </trkpt>
      <trkpt lat="45.17113" lon="4.9917">
        <ele>378.22436523438</ele>
        <time>2009-04-22T14:18:23Z</time>
      </trkpt>
      <trkpt lat="45.17039" lon="4.99197">
        <ele>372.67211914062</ele>
        <time>2009-04-22T14:18:33Z</time>
      </trkpt>
      <trkpt lat="45.16913" lon="4.99254">
        <ele>370.22137451172</ele>
        <time>2009-04-22T14:18:50Z</time>
      </trkpt>
      <trkpt lat="45.16895" lon="4.99257">
        <ele>367.95550537109</ele>
        <time>2009-04-22T14:18:53Z</time>
      </trkpt>
      <trkpt lat="45.16879" lon="4.99249">
        <ele>366.55688476562</ele>
        <time>2009-04-22T14:18:55Z</time>
      </trkpt>
      <trkpt lat="45.16829" lon="4.99197">
        <ele>366.29949951172</ele>
        <time>2009-04-22T14:19:03Z</time>
      </trkpt>
      <trkpt lat="45.16803" lon="4.99176">
        <ele>366.0803527832</ele>
        <time>2009-04-22T14:19:07Z</time>
      </trkpt>
      <trkpt lat="45.16791" lon="4.99173">
        <ele>365.2643737793</ele>
        <time>2009-04-22T14:19:09Z</time>
      </trkpt>
      <trkpt lat="45.16761" lon="4.99192">
        <ele>360.32168579102</ele>
        <time>2009-04-22T14:19:13Z</time>
      </trkpt>
      <trkpt lat="45.16749" lon="4.99192">
        <ele>359.18829345703</ele>
        <time>2009-04-22T14:19:15Z</time>
      </trkpt>
      <trkpt lat="45.16717" lon="4.99144">
        <ele>362.47882080078</ele>
        <time>2009-04-22T14:19:21Z</time>
      </trkpt>
      <trkpt lat="45.16706" lon="4.99139">
        <ele>362.35064697266</ele>
        <time>2009-04-22T14:19:23Z</time>
      </trkpt>
      <trkpt lat="45.1668" lon="4.99161">
        <ele>358.42016601562</ele>
        <time>2009-04-22T14:19:27Z</time>
      </trkpt>
      <trkpt lat="45.16649" lon="4.99161">
        <ele>355.51876831055</ele>
        <time>2009-04-22T14:19:31Z</time>
      </trkpt>
      <trkpt lat="45.16633" lon="4.99146">
        <ele>355.47702026367</ele>
        <time>2009-04-22T14:19:33Z</time>
      </trkpt>
      <trkpt lat="45.16615" lon="4.99109">
        <ele>358.30926513672</ele>
        <time>2009-04-22T14:19:38Z</time>
      </trkpt>
      <trkpt lat="45.16598" lon="4.99096">
        <ele>358.49816894531</ele>
        <time>2009-04-22T14:19:40Z</time>
      </trkpt>
      <trkpt lat="45.16469" lon="4.99115">
        <ele>347.55068969727</ele>
        <time>2009-04-22T14:19:58Z</time>
      </trkpt>
      <trkpt lat="45.16387" lon="4.99148">
        <ele>340.04754638672</ele>
        <time>2009-04-22T14:20:09Z</time>
      </trkpt>
      <trkpt lat="45.16244" lon="4.99196">
        <ele>331.75799560547</ele>
        <time>2009-04-22T14:20:29Z</time>
      </trkpt>
      <trkpt lat="45.16197" lon="4.99207">
        <ele>327.75155639648</ele>
        <time>2009-04-22T14:20:35Z</time>
      </trkpt>
      <trkpt lat="45.16157" lon="4.99202">
        <ele>325.5068359375</ele>
        <time>2009-04-22T14:20:40Z</time>
      </trkpt>
      <trkpt lat="45.16133" lon="4.99163">
        <ele>325.17654418945</ele>
        <time>2009-04-22T14:20:45Z</time>
      </trkpt>
      <trkpt lat="45.16116" lon="4.99149">
        <ele>324.06698608398</ele>
        <time>2009-04-22T14:20:48Z</time>
      </trkpt>
      <trkpt lat="45.16096" lon="4.99143">
        <ele>322.34906005859</ele>
        <time>2009-04-22T14:20:50Z</time>
      </trkpt>
      <trkpt lat="45.1601" lon="4.9916">
        <ele>323.36618041992</ele>
        <time>2009-04-22T14:21:02Z</time>
      </trkpt>
      <trkpt lat="45.15905" lon="4.99198">
        <ele>327.25015258789</ele>
        <time>2009-04-22T14:21:16Z</time>
      </trkpt>
      <trkpt lat="45.15822" lon="4.99205">
        <ele>331.43823242188</ele>
        <time>2009-04-22T14:21:28Z</time>
      </trkpt>
      <trkpt lat="45.1578" lon="4.99214">
        <ele>330.98782348633</ele>
        <time>2009-04-22T14:21:33Z</time>
      </trkpt>
      <trkpt lat="45.15645" lon="4.9927">
        <ele>328.93988037109</ele>
        <time>2009-04-22T14:21:52Z</time>
      </trkpt>
      <trkpt lat="45.15578" lon="4.9933">
        <ele>327.75012207031</ele>
        <time>2009-04-22T14:22:03Z</time>
      </trkpt>
      <trkpt lat="45.15486" lon="4.99384">
        <ele>332.58865356445</ele>
        <time>2009-04-22T14:22:16Z</time>
      </trkpt>
      <trkpt lat="45.15478" lon="4.99393">
        <ele>332.1653137207</ele>
        <time>2009-04-22T14:22:17Z</time>
      </trkpt>
      <trkpt lat="45.15459" lon="4.99445">
        <ele>325.74942016602</ele>
        <time>2009-04-22T14:22:23Z</time>
      </trkpt>
      <trkpt lat="45.15449" lon="4.99457">
        <ele>325.03421020508</ele>
        <time>2009-04-22T14:22:25Z</time>
      </trkpt>
      <trkpt lat="45.15394" lon="4.99476">
        <ele>329.24981689453</ele>
        <time>2009-04-22T14:22:32Z</time>
      </trkpt>
      <trkpt lat="45.15379" lon="4.995">
        <ele>326.6015625</ele>
        <time>2009-04-22T14:22:35Z</time>
      </trkpt>
      <trkpt lat="45.15358" lon="4.99574">
        <ele>321.77755737305</ele>
        <time>2009-04-22T14:22:43Z</time>
      </trkpt>
      <trkpt lat="45.15341" lon="4.99617">
        <ele>317.69274902344</ele>
        <time>2009-04-22T14:22:47Z</time>
      </trkpt>
      <trkpt lat="45.15323" lon="4.9964">
        <ele>314.33312988281</ele>
        <time>2009-04-22T14:22:50Z</time>
      </trkpt>
      <trkpt lat="45.15282" lon="4.99666">
        <ele>310.34936523438</ele>
        <time>2009-04-22T14:22:56Z</time>
      </trkpt>
      <trkpt lat="45.15229" lon="4.99673">
        <ele>305.33004760742</ele>
        <time>2009-04-22T14:23:04Z</time>
      </trkpt>
      <trkpt lat="45.15214" lon="4.99665">
        <ele>303.03897094727</ele>
        <time>2009-04-22T14:23:06Z</time>
      </trkpt>
      <trkpt lat="45.15205" lon="4.99648">
        <ele>302.89099121094</ele>
        <time>2009-04-22T14:23:08Z</time>
      </trkpt>
      <trkpt lat="45.15197" lon="4.99557">
        <ele>311.25625610352</ele>
        <time>2009-04-22T14:23:16Z</time>
      </trkpt>
      <trkpt lat="45.1518" lon="4.99512">
        <ele>311.26470947266</ele>
        <time>2009-04-22T14:23:21Z</time>
      </trkpt>
      <trkpt lat="45.15153" lon="4.99469">
        <ele>309.82922363281</ele>
        <time>2009-04-22T14:23:27Z</time>
      </trkpt>
      <trkpt lat="45.15113" lon="4.99445">
        <ele>302.05407714844</ele>
        <time>2009-04-22T14:23:32Z</time>
      </trkpt>
      <trkpt lat="45.14985" lon="4.9932">
        <ele>286.63131713867</ele>
        <time>2009-04-22T14:23:53Z</time>
      </trkpt>
      <trkpt lat="45.14927" lon="4.99296">
        <ele>289.93640136719</ele>
        <time>2009-04-22T14:24:01Z</time>
      </trkpt>
      <trkpt lat="45.14852" lon="4.9924">
        <ele>287.39733886719</ele>
        <time>2009-04-22T14:24:12Z</time>
      </trkpt>
      <trkpt lat="45.14756" lon="4.99177">
        <ele>278.85250854492</ele>
        <time>2009-04-22T14:24:27Z</time>
      </trkpt>
      <trkpt lat="45.14694" lon="4.99164">
        <ele>277.4577331543</ele>
        <time>2009-04-22T14:24:35Z</time>
      </trkpt>
      <trkpt lat="45.14512" lon="4.99144">
        <ele>273.86038208008</ele>
        <time>2009-04-22T14:24:59Z</time>
      </trkpt>
      <trkpt lat="45.14462" lon="4.99131">
        <ele>275.19058227539</ele>
        <time>2009-04-22T14:25:06Z</time>
      </trkpt>
      <trkpt lat="45.14412" lon="4.9911">
        <ele>280.10095214844</ele>
        <time>2009-04-22T14:25:13Z</time>
      </trkpt>
      <trkpt lat="45.14288" lon="4.99116">
        <ele>278.88055419922</ele>
        <time>2009-04-22T14:25:30Z</time>
      </trkpt>
      <trkpt lat="45.14214" lon="4.99113">
        <ele>275.76800537109</ele>
        <time>2009-04-22T14:25:39Z</time>
      </trkpt>
      <trkpt lat="45.14165" lon="4.99076">
        <ele>281.06924438477</ele>
        <time>2009-04-22T14:25:47Z</time>
      </trkpt>
      <trkpt lat="45.14131" lon="4.99068">
        <ele>282.08801269531</ele>
        <time>2009-04-22T14:25:51Z</time>
      </trkpt>
      <trkpt lat="45.13942" lon="4.99062">
        <ele>278.48782348633</ele>
        <time>2009-04-22T14:26:17Z</time>
      </trkpt>
      <trkpt lat="45.13907" lon="4.99074">
        <ele>277.77536010742</ele>
        <time>2009-04-22T14:26:21Z</time>
      </trkpt>
      <trkpt lat="45.13707" lon="4.99197">
        <ele>278.34671020508</ele>
        <time>2009-04-22T14:26:51Z</time>
      </trkpt>
      <trkpt lat="45.13665" lon="4.9921">
        <ele>280.22344970703</ele>
        <time>2009-04-22T14:26:56Z</time>
      </trkpt>
      <trkpt lat="45.13636" lon="4.99211">
        <ele>279.0475769043</ele>
        <time>2009-04-22T14:27:00Z</time>
      </trkpt>
      <trkpt lat="45.13614" lon="4.99205">
        <ele>279.03784179688</ele>
        <time>2009-04-22T14:27:03Z</time>
      </trkpt>
      <trkpt lat="45.13591" lon="4.99195">
        <ele>279.53564453125</ele>
        <time>2009-04-22T14:27:06Z</time>
      </trkpt>
      <trkpt lat="45.13532" lon="4.9915">
        <ele>280.52526855469</ele>
        <time>2009-04-22T14:27:15Z</time>
      </trkpt>
      <trkpt lat="45.13336" lon="4.98978">
        <ele>265.31134033203</ele>
        <time>2009-04-22T14:27:46Z</time>
      </trkpt>
      <trkpt lat="45.13304" lon="4.98961">
        <ele>262.1764831543</ele>
        <time>2009-04-22T14:27:51Z</time>
      </trkpt>
      <trkpt lat="45.12982" lon="4.98844">
        <ele>248.99165344238</ele>
        <time>2009-04-22T14:28:35Z</time>
      </trkpt>
      <trkpt lat="45.12862" lon="4.98818">
        <ele>247.94427490234</ele>
        <time>2009-04-22T14:28:51Z</time>
      </trkpt>
      <trkpt lat="45.12773" lon="4.98778">
        <ele>245.52836608887</ele>
        <time>2009-04-22T14:29:04Z</time>
      </trkpt>
      <trkpt lat="45.12754" lon="4.98758">
        <ele>243.81175231934</ele>
        <time>2009-04-22T14:29:07Z</time>
      </trkpt>
      <trkpt lat="45.127" lon="4.98665">
        <ele>232.7278137207</ele>
        <time>2009-04-22T14:29:18Z</time>
      </trkpt>
      <trkpt lat="45.12679" lon="4.98638">
        <ele>228.23620605469</ele>
        <time>2009-04-22T14:29:22Z</time>
      </trkpt>
      <trkpt lat="45.12531" lon="4.9855">
        <ele>215.66638183594</ele>
        <time>2009-04-22T14:29:43Z</time>
      </trkpt>
      <trkpt lat="45.12504" lon="4.98542">
        <ele>214.59060668945</ele>
        <time>2009-04-22T14:29:47Z</time>
      </trkpt>
      <trkpt lat="45.12466" lon="4.98541">
        <ele>213.65277099609</ele>
        <time>2009-04-22T14:29:52Z</time>
      </trkpt>
      <trkpt lat="45.12437" lon="4.98531">
        <ele>212.54306030273</ele>
        <time>2009-04-22T14:29:56Z</time>
      </trkpt>
      <trkpt lat="45.12378" lon="4.98357">
        <ele>210.5334777832</ele>
        <time>2009-04-22T14:30:14Z</time>
      </trkpt>
      <trkpt lat="45.1236" lon="4.98373">
        <ele>210.38934326172</ele>
        <time>2009-04-22T14:30:17Z</time>
      </trkpt>
      <trkpt lat="45.12345" lon="4.98402">
        <ele>209.59405517578</ele>
        <time>2009-04-22T14:30:20Z</time>
      </trkpt>
      <trkpt lat="45.12334" lon="4.98409">
        <ele>209.28285217285</ele>
        <time>2009-04-22T14:30:22Z</time>
      </trkpt>
      <trkpt lat="45.1223" lon="4.98412">
        <ele>208.57621765137</ele>
        <time>2009-04-22T14:30:36Z</time>
      </trkpt>
      <trkpt lat="45.12058" lon="4.98398">
        <ele>205.24694824219</ele>
        <time>2009-04-22T14:30:59Z</time>
      </trkpt>
    </trkseg>
  </trk>
</gpx>